Observation data for Guadalupe Mtns Park on 07/20/2019      Previous  Date       Current Mesonet Observations  Soil Data  Daily Summary Page  Observations in Plain Language
KGU1 200500Z 29003KT 26/08 A3013 RMK A01 T02570082  RH  034%=      5-min Rain = 0
KGU1 200501Z 29002KT 26/08 A3013 RMK A01 T02550082  RH  034%=      5-min Rain = 0
KGU1 200502Z 29004KT 25/08 A3013 RMK A01 T02540082  RH  034%=      5-min Rain = 0
KGU1 200503Z 30004KT 25/08 A3013 RMK A01 T02530082  RH  035%=      5-min Rain = 0
KGU1 200504Z 30004KT 25/08 A3013 RMK A01 T02520082  RH  035%=      5-min Rain = 0
KGU1 200505Z 31003KT 25/08 A3013 RMK A01 T02520082  RH  035%=      5-min Rain = 0
KGU1 200506Z 30004KT 25/08 A3013 RMK A01 T02530082  RH  035%=      5-min Rain = 0
KGU1 200507Z 30002KT 25/08 A3013 RMK A01 T02530081  RH  034%=      5-min Rain = 0
KGU1 200508Z 29003KT 25/08 A3013 RMK A01 T02540081  RH  034%=      5-min Rain = 0
KGU1 200509Z 29003KT 25/08 A3013 RMK A01 T02540081  RH  034%=      5-min Rain = 0
KGU1 200510Z 29004KT 25/08 A3013 RMK A01 T02520082  RH  035%=      5-min Rain = 0
KGU1 200511Z 30004KT 25/08 A3013 RMK A01 T02500082  RH  035%=      5-min Rain = 0
KGU1 200512Z 29003KT 25/08 A3013 RMK A01 T02490082  RH  035%=      5-min Rain = 0
KGU1 200513Z 27004KT 25/08 A3013 RMK A01 T02480082  RH  036%=      5-min Rain = 0
KGU1 200514Z 27004KT 25/08 A3013 RMK A01 T02460081  RH  036%=      5-min Rain = 0
KGU1 200515Z 28005KT 25/08 A3013 RMK A01 T02450081  RH  036%=      5-min Rain = 0
KGU1 200516Z 29005KT 25/08 A3013 RMK A01 T02450082  RH  036%=      5-min Rain = 0
KGU1 200517Z 29006KT 25/08 A3013 RMK A01 T02450081  RH  036%=      5-min Rain = 0
KGU1 200518Z 29006KT 25/08 A3013 RMK A01 T02450081  RH  036%=      5-min Rain = 0
KGU1 200519Z 29006KT 25/08 A3013 RMK A01 T02460081  RH  036%=      5-min Rain = 0
KGU1 200520Z 29006KT 25/08 A3013 RMK A01 T02480081  RH  036%=      5-min Rain = 0
KGU1 200521Z 29005KT 25/08 A3013 RMK A01 T02480081  RH  036%=      5-min Rain = 0
KGU1 200522Z 29005KT 25/08 A3013 RMK A01 T02470081  RH  036%=      5-min Rain = 0
KGU1 200523Z 29004KT 25/08 A3013 RMK A01 T02470081  RH  036%=      5-min Rain = 0
KGU1 200524Z 28004KT 25/08 A3013 RMK A01 T02480081  RH  036%=      5-min Rain = 0
KGU1 200525Z 28005KT 25/08 A3013 RMK A01 T02480082  RH  036%=      5-min Rain = 0
KGU1 200526Z 27005KT 25/08 A3013 RMK A01 T02470082  RH  036%=      5-min Rain = 0
KGU1 200527Z 27005KT 25/08 A3013 RMK A01 T02460082  RH  036%=      5-min Rain = 0
KGU1 200528Z 27005KT 25/08 A3013 RMK A01 T02470081  RH  036%=      5-min Rain = 0
KGU1 200529Z 26005KT 25/08 A3013 RMK A01 T02470081  RH  036%=      5-min Rain = 0
KGU1 200530Z 26005KT 25/08 A3013 RMK A01 T02480081  RH  036%=      5-min Rain = 0
KGU1 200531Z 27006KT 25/08 A3013 RMK A01 T02480082  RH  036%=      5-min Rain = 0
KGU1 200532Z 28006KT 25/08 A3013 RMK A01 T02480081  RH  036%=      5-min Rain = 0
KGU1 200533Z 29005KT 25/08 A3013 RMK A01 T02480082  RH  035%=      5-min Rain = 0
KGU1 200534Z 30006KT 25/08 A3013 RMK A01 T02480081  RH  036%=      5-min Rain = 0
KGU1 200535Z 29006KT 25/08 A3013 RMK A01 T02470081  RH  036%=      5-min Rain = 0
KGU1 200536Z 29007KT 25/08 A3013 RMK A01 T02470082  RH  036%=      5-min Rain = 0
KGU1 200537Z 29007KT 25/08 A3013 RMK A01 T02460082  RH  036%=      5-min Rain = 0
KGU1 200538Z 30007KT 25/08 A3013 RMK A01 T02450082  RH  037%=      5-min Rain = 0
KGU1 200539Z 29007KT 25/08 A3013 RMK A01 T02450082  RH  036%=      5-min Rain = 0
KGU1 200540Z 29007KT 25/08 A3013 RMK A01 T02460082  RH  036%=      5-min Rain = 0
KGU1 200541Z 30006KT 25/08 A3013 RMK A01 T02460082  RH  036%=      5-min Rain = 0
KGU1 200542Z 29007KT 25/08 A3013 RMK A01 T02450081  RH  036%=      5-min Rain = 0
KGU1 200543Z 30007KT 25/08 A3013 RMK A01 T02460081  RH  036%=      5-min Rain = 0
KGU1 200544Z 30007KT 25/08 A3013 RMK A01 T02480081  RH  036%=      5-min Rain = 0
KGU1 200545Z 30007KT 25/08 A3013 RMK A01 T02490081  RH  035%=      5-min Rain = 0
KGU1 200546Z 30006KT 25/08 A3013 RMK A01 T02510081  RH  035%=      5-min Rain = 0
KGU1 200547Z 30007KT 25/08 A3013 RMK A01 T02510081  RH  035%=      5-min Rain = 0
KGU1 200548Z 30007KT 25/08 A3013 RMK A01 T02520081  RH  035%=      5-min Rain = 0
KGU1 200549Z 31007KT 25/08 A3013 RMK A01 T02520081  RH  035%=      5-min Rain = 0
KGU1 200550Z 30006KT 25/08 A3013 RMK A01 T02530081  RH  035%=      5-min Rain = 0
KGU1 200551Z 31004KT 25/08 A3013 RMK A01 T02520082  RH  035%=      5-min Rain = 0
KGU1 200552Z 30005KT 25/08 A3013 RMK A01 T02510082  RH  035%=      5-min Rain = 0
KGU1 200553Z 30005KT 25/08 A3013 RMK A01 T02500081  RH  035%=      5-min Rain = 0
KGU1 200554Z 29006KT 25/08 A3013 RMK A01 T02490081  RH  035%=      5-min Rain = 0
KGU1 200555Z 29006KT 25/08 A3013 RMK A01 T02490081  RH  035%=      5-min Rain = 0
KGU1 200556Z 29007KT 25/08 A3013 RMK A01 T02490082  RH  035%=      5-min Rain = 0
KGU1 200557Z 30006KT 25/08 A3013 RMK A01 T02480082  RH  036%=      5-min Rain = 0
KGU1 200558Z 30006KT 25/08 A3013 RMK A01 T02480081  RH  036%=      5-min Rain = 0
KGU1 200559Z 30006KT 25/08 A3013 RMK A01 T02480081  RH  035%=      5-min Rain = 0
KGU1 200600Z 30007KT 25/08 A3013 RMK A01 T02480081  RH  035%=      5-min Rain = 0
KGU1 200601Z 30007KT 25/08 A3013 RMK A01 T02490081  RH  035%=      5-min Rain = 0
KGU1 200602Z 30007KT 25/08 A3013 RMK A01 T02490081  RH  035%=      5-min Rain = 0
KGU1 200603Z 30008KT 25/08 A3013 RMK A01 T02490081  RH  035%=      5-min Rain = 0
KGU1 200604Z 29008KT 25/08 A3013 RMK A01 T02490081  RH  035%=      5-min Rain = 0
KGU1 200605Z 29006KT 25/08 A3013 RMK A01 T02500081  RH  035%=      5-min Rain = 0
KGU1 200606Z 29006KT 25/08 A3013 RMK A01 T02500081  RH  035%=      5-min Rain = 0
KGU1 200607Z 29007KT 25/08 A3013 RMK A01 T02490081  RH  035%=      5-min Rain = 0
KGU1 200608Z 29007KT 25/08 A3013 RMK A01 T02490081  RH  035%=      5-min Rain = 0
KGU1 200609Z 29007KT 25/08 A3013 RMK A01 T02480082  RH  036%=      5-min Rain = 0
KGU1 200610Z 29007KT 25/08 A3013 RMK A01 T02480082  RH  036%=      5-min Rain = 0
KGU1 200611Z 29006KT 25/08 A3013 RMK A01 T02480081  RH  036%=      5-min Rain = 0
KGU1 200612Z 29007KT 25/08 A3013 RMK A01 T02480082  RH  036%=      5-min Rain = 0
KGU1 200613Z 29007KT 25/08 A3013 RMK A01 T02470082  RH  036%=      5-min Rain = 0
KGU1 200614Z 29006KT 25/08 A3013 RMK A01 T02470081  RH  036%=      5-min Rain = 0
KGU1 200615Z 29006KT 25/08 A3013 RMK A01 T02460082  RH  036%=      5-min Rain = 0
KGU1 200616Z 29007KT 25/08 A3013 RMK A01 T02450082  RH  036%=      5-min Rain = 0
KGU1 200617Z 30007KT 25/08 A3013 RMK A01 T02450082  RH  036%=      5-min Rain = 0
KGU1 200618Z 29006KT 25/08 A3013 RMK A01 T02450082  RH  036%=      5-min Rain = 0
KGU1 200619Z 29006KT 25/08 A3013 RMK A01 T02450082  RH  036%=      5-min Rain = 0
KGU1 200620Z 28007KT 24/08 A3013 RMK A01 T02440082  RH  037%=      5-min Rain = 0
KGU1 200621Z 28007KT 24/08 A3013 RMK A01 T02430082  RH  037%=      5-min Rain = 0
KGU1 200622Z 28007KT 24/08 A3013 RMK A01 T02420082  RH  037%=      5-min Rain = 0
KGU1 200623Z 28006KT 24/08 A3013 RMK A01 T02420083  RH  037%=      5-min Rain = 0
KGU1 200624Z 28006KT 24/08 A3013 RMK A01 T02420083  RH  037%=      5-min Rain = 0
KGU1 200625Z 28006KT 24/08 A3013 RMK A01 T02430083  RH  037%=      5-min Rain = 0
KGU1 200626Z 28006KT 24/08 A3013 RMK A01 T02430083  RH  037%=      5-min Rain = 0
KGU1 200627Z 28006KT 24/08 A3013 RMK A01 T02430083  RH  037%=      5-min Rain = 0
KGU1 200628Z 28006KT 24/08 A3013 RMK A01 T02430083  RH  037%=      5-min Rain = 0
KGU1 200629Z 28006KT 24/08 A3013 RMK A01 T02430084  RH  037%=      5-min Rain = 0
KGU1 200630Z 28006KT 24/08 A3013 RMK A01 T02430083  RH  037%=      5-min Rain = 0
KGU1 200631Z 29006KT 24/08 A3013 RMK A01 T02440083  RH  037%=      5-min Rain = 0
KGU1 200632Z 28006KT 24/08 A3013 RMK A01 T02430083  RH  037%=      5-min Rain = 0
KGU1 200633Z 28006KT 24/08 A3013 RMK A01 T02420083  RH  037%=      5-min Rain = 0
KGU1 200634Z 28006KT 24/08 A3013 RMK A01 T02420084  RH  037%=      5-min Rain = 0
KGU1 200635Z 28006KT 24/08 A3013 RMK A01 T02420084  RH  038%=      5-min Rain = 0
KGU1 200636Z 28005KT 24/08 A3013 RMK A01 T02420084  RH  038%=      5-min Rain = 0
KGU1 200637Z 27005KT 24/08 A3013 RMK A01 T02410084  RH  038%=      5-min Rain = 0
KGU1 200638Z 27005KT 24/08 A3013 RMK A01 T02400084  RH  038%=      5-min Rain = 0
KGU1 200639Z 27005KT 24/08 A3013 RMK A01 T02400084  RH  038%=      5-min Rain = 0
KGU1 200640Z 27005KT 24/08 A3013 RMK A01 T02390084  RH  038%=      5-min Rain = 0
KGU1 200641Z 27005KT 24/08 A3013 RMK A01 T02380084  RH  039%=      5-min Rain = 0
KGU1 200642Z 27005KT 24/08 A3013 RMK A01 T02370084  RH  039%=      5-min Rain = 0
KGU1 200643Z 27005KT 24/08 A3013 RMK A01 T02360084  RH  039%=      5-min Rain = 0
KGU1 200644Z 27005KT 24/08 A3013 RMK A01 T02350084  RH  039%=      5-min Rain = 0
KGU1 200645Z 27006KT 24/08 A3013 RMK A01 T02350084  RH  039%=      5-min Rain = 0
KGU1 200646Z 27006KT 23/08 A3013 RMK A01 T02340083  RH  039%=      5-min Rain = 0
KGU1 200647Z 27007KT 23/08 A3013 RMK A01 T02340084  RH  039%=      5-min Rain = 0
KGU1 200648Z 26006KT 23/08 A3013 RMK A01 T02340084  RH  039%=      5-min Rain = 0
KGU1 200649Z 27006KT 24/08 A3013 RMK A01 T02360084  RH  039%=      5-min Rain = 0
KGU1 200650Z 27006KT 24/08 A3013 RMK A01 T02380084  RH  039%=      5-min Rain = 0
KGU1 200651Z 26006KT 24/08 A3013 RMK A01 T02380084  RH  038%=      5-min Rain = 0
KGU1 200652Z 26005KT 24/08 A3013 RMK A01 T02360084  RH  039%=      5-min Rain = 0
KGU1 200653Z 26006KT 24/08 A3013 RMK A01 T02350084  RH  039%=      5-min Rain = 0
KGU1 200654Z 24007KT 24/08 A3013 RMK A01 T02350083  RH  039%=      5-min Rain = 0
KGU1 200655Z 22006KT 24/08 A3013 RMK A01 T02400083  RH  038%=      5-min Rain = 0
KGU1 200656Z 22007KT 25/08 A3013 RMK A01 T02470082  RH  036%=      5-min Rain = 0
KGU1 200657Z 22006KT 25/08 A3013 RMK A01 T02520082  RH  035%=      5-min Rain = 0
KGU1 200658Z 21006KT 26/08 A3013 RMK A01 T02560083  RH  034%=      5-min Rain = 0
KGU1 200659Z 23007KT 26/08 A3013 RMK A01 T02590082  RH  034%=      5-min Rain = 0
KGU1 200700Z 23007KT 26/08 A3013 RMK A01 T02610082  RH  033%=      5-min Rain = 0
KGU1 200701Z 23007KT 26/08 A3013 RMK A01 T02630083  RH  033%=      5-min Rain = 0
KGU1 200702Z 22007KT 26/08 A3013 RMK A01 T02620083  RH  033%=      5-min Rain = 0
KGU1 200703Z 22008KT 26/08 A3013 RMK A01 T02630083  RH  033%=      5-min Rain = 0
KGU1 200704Z 23006KT 26/08 A3013 RMK A01 T02640083  RH  033%=      5-min Rain = 0
KGU1 200705Z 22006KT 26/08 A3013 RMK A01 T02640084  RH  033%=      5-min Rain = 0
KGU1 200706Z 23006KT 26/08 A3013 RMK A01 T02630084  RH  033%=      5-min Rain = 0
KGU1 200707Z 24006KT 26/08 A3013 RMK A01 T02630083  RH  033%=      5-min Rain = 0
KGU1 200708Z 24006KT 26/08 A3013 RMK A01 T02620084  RH  033%=      5-min Rain = 0
KGU1 200709Z 25006KT 26/08 A3013 RMK A01 T02620084  RH  034%=      5-min Rain = 0
KGU1 200710Z 25005KT 26/08 A3013 RMK A01 T02600084  RH  034%=      5-min Rain = 0
KGU1 200711Z 25005KT 26/08 A3013 RMK A01 T02590084  RH  034%=      5-min Rain = 0
KGU1 200712Z 25006KT 26/09 A3013 RMK A01 T02580085  RH  034%=      5-min Rain = 0
KGU1 200713Z 26007KT 26/09 A3013 RMK A01 T02570086  RH  035%=      5-min Rain = 0
KGU1 200714Z 25008KT 26/09 A3013 RMK A01 T02560086  RH  035%=      5-min Rain = 0
KGU1 200715Z 26007KT 26/09 A3013 RMK A01 T02560087  RH  035%=      5-min Rain = 0
KGU1 200716Z 26007KT 26/09 A3013 RMK A01 T02560087  RH  035%=      5-min Rain = 0
KGU1 200717Z 26007KT 26/09 A3013 RMK A01 T02560087  RH  035%=      5-min Rain = 0
KGU1 200718Z 26007KT 26/09 A3013 RMK A01 T02550087  RH  035%=      5-min Rain = 0
KGU1 200719Z 26007KT 25/09 A3013 RMK A01 T02540087  RH  036%=      5-min Rain = 0
KGU1 200720Z 26006KT 25/09 A3013 RMK A01 T02540088  RH  036%=      5-min Rain = 0
KGU1 200721Z 26007KT 25/09 A3013 RMK A01 T02540088  RH  036%=      5-min Rain = 0
KGU1 200722Z 26007KT 25/09 A3013 RMK A01 T02540088  RH  036%=      5-min Rain = 0
KGU1 200723Z 26007KT 25/09 A3013 RMK A01 T02540089  RH  036%=      5-min Rain = 0
KGU1 200724Z 26007KT 25/09 A3013 RMK A01 T02530089  RH  036%=      5-min Rain = 0
KGU1 200725Z 26007KT 25/09 A3012 RMK A01 T02520089  RH  037%=      5-min Rain = 0
KGU1 200726Z 25007KT 25/09 A3012 RMK A01 T02520090  RH  037%=      5-min Rain = 0
KGU1 200727Z 26007KT 26/09 A3013 RMK A01 T02550091  RH  036%=      5-min Rain = 0
KGU1 200728Z 26008KT 26/09 A3013 RMK A01 T02560091  RH  036%=      5-min Rain = 0
KGU1 200729Z 26007KT 26/09 A3013 RMK A01 T02560091  RH  036%=      5-min Rain = 0
KGU1 200730Z 26007KT 26/09 A3013 RMK A01 T02560091  RH  036%=      5-min Rain = 0
KGU1 200731Z 25007KT 25/09 A3013 RMK A01 T02540091  RH  037%=      5-min Rain = 0
KGU1 200732Z 26007KT 25/09 A3013 RMK A01 T02530091  RH  037%=      5-min Rain = 0
KGU1 200733Z 26007KT 25/09 A3013 RMK A01 T02520091  RH  037%=      5-min Rain = 0
KGU1 200734Z 26007KT 25/09 A3013 RMK A01 T02530092  RH  037%=      5-min Rain = 0
KGU1 200735Z 26008KT 25/09 A3013 RMK A01 T02520092  RH  037%=      5-min Rain = 0
KGU1 200736Z 26007KT 25/09 A3013 RMK A01 T02530092  RH  037%=      5-min Rain = 0
KGU1 200737Z 24008KT 25/09 A3013 RMK A01 T02530093  RH  038%=      5-min Rain = 0
KGU1 200738Z 24006KT 26/09 A3013 RMK A01 T02560094  RH  037%=      5-min Rain = 0
KGU1 200739Z 25006KT 26/09 A3013 RMK A01 T02570093  RH  037%=      5-min Rain = 0
KGU1 200740Z 26007KT 26/09 A3012 RMK A01 T02560094  RH  037%=      5-min Rain = 0
KGU1 200741Z 25008KT 26/10 A3012 RMK A01 T02550095  RH  038%=      5-min Rain = 0
KGU1 200742Z 26006KT 25/10 A3012 RMK A01 T02540095  RH  038%=      5-min Rain = 0
KGU1 200743Z 26008KT 25/10 A3012 RMK A01 T02530095  RH  038%=      5-min Rain = 0
KGU1 200744Z 25008KT 25/10 A3012 RMK A01 T02530095  RH  038%=      5-min Rain = 0
KGU1 200745Z 25007KT 25/10 A3012 RMK A01 T02540096  RH  038%=      5-min Rain = 0
KGU1 200746Z 26007KT 25/10 A3012 RMK A01 T02540096  RH  038%=      5-min Rain = 0
KGU1 200747Z 25008KT 25/10 A3012 RMK A01 T02530096  RH  038%=      5-min Rain = 0
KGU1 200748Z 25010KT 25/10 A3012 RMK A01 T02520097  RH  039%=      5-min Rain = 0
KGU1 200749Z 26010KT 25/10 A3012 RMK A01 T02530098  RH  039%=      5-min Rain = 0
KGU1 200750Z 26008KT 25/10 A3012 RMK A01 T02540098  RH  039%=      5-min Rain = 0
KGU1 200751Z 26009KT 25/10 A3012 RMK A01 T02540099  RH  039%=      5-min Rain = 0
KGU1 200752Z 25010KT 25/10 A3012 RMK A01 T02540100  RH  039%=      5-min Rain = 0
KGU1 200753Z 24010KT 25/10 A3012 RMK A01 T02540100  RH  039%=      5-min Rain = 0
KGU1 200754Z 25009KT 26/10 A3012 RMK A01 T02550101  RH  039%=      5-min Rain = 0
KGU1 200755Z 25007KT 25/10 A3012 RMK A01 T02540100  RH  039%=      5-min Rain = 0
KGU1 200756Z 24009KT 25/10 A3012 RMK A01 T02540101  RH  039%=      5-min Rain = 0
KGU1 200757Z 25008KT 25/10 A3012 RMK A01 T02530101  RH  040%=      5-min Rain = 0
KGU1 200758Z 24009KT 25/10 A3012 RMK A01 T02530101  RH  040%=      5-min Rain = 0
KGU1 200759Z 25008KT 25/10 A3012 RMK A01 T02530102  RH  040%=      5-min Rain = 0
KGU1 200800Z 25008KT 25/10 A3012 RMK A01 T02530102  RH  040%=      5-min Rain = 0
KGU1 200801Z 24008KT 25/10 A3012 RMK A01 T02520102  RH  040%=      5-min Rain = 0
KGU1 200802Z 25008KT 25/10 A3012 RMK A01 T02520103  RH  040%=      5-min Rain = 0
KGU1 200803Z 26009KT 25/10 A3012 RMK A01 T02510103  RH  040%=      5-min Rain = 0
KGU1 200804Z 25008KT 25/10 A3012 RMK A01 T02510103  RH  040%=      5-min Rain = 0
KGU1 200805Z 25010KT 25/10 A3012 RMK A01 T02520103  RH  041%=      5-min Rain = 0
KGU1 200806Z 25013KT 25/10 A3012 RMK A01 T02520104  RH  041%=      5-min Rain = 0
KGU1 200807Z 25009KT 25/10 A3012 RMK A01 T02530104  RH  040%=      5-min Rain = 0
KGU1 200808Z 25011KT 25/10 A3012 RMK A01 T02530104  RH  040%=      5-min Rain = 0
KGU1 200809Z 25012KT 25/10 A3012 RMK A01 T02540104  RH  040%=      5-min Rain = 0
KGU1 200810Z 24010KT 25/11 A3012 RMK A01 T02540105  RH  040%=      5-min Rain = 0
KGU1 200811Z 24009KT 25/10 A3012 RMK A01 T02540104  RH  040%=      5-min Rain = 0
KGU1 200812Z 26008KT 25/10 A3012 RMK A01 T02530104  RH  040%=      5-min Rain = 0
KGU1 200813Z 25008KT 25/10 A3012 RMK A01 T02520104  RH  041%=      5-min Rain = 0
KGU1 200814Z 25008KT 25/11 A3012 RMK A01 T02500105  RH  041%=      5-min Rain = 0
KGU1 200815Z 24011KT 25/11 A3012 RMK A01 T02500105  RH  041%=      5-min Rain = 0
KGU1 200816Z 24011KT 25/11 A3012 RMK A01 T02500105  RH  041%=      5-min Rain = 0
KGU1 200817Z 24009KT 25/11 A3012 RMK A01 T02510106  RH  041%=      5-min Rain = 0
KGU1 200818Z 24011KT 25/11 A3012 RMK A01 T02510106  RH  041%=      5-min Rain = 0
KGU1 200819Z 24012KT 25/11 A3012 RMK A01 T02520106  RH  041%=      5-min Rain = 0
KGU1 200820Z 24010KT 25/11 A3012 RMK A01 T02530106  RH  041%=      5-min Rain = 0
KGU1 200821Z 23010KT 25/11 A3012 RMK A01 T02520106  RH  041%=      5-min Rain = 0
KGU1 200822Z 24010KT 25/11 A3012 RMK A01 T02520106  RH  041%=      5-min Rain = 0
KGU1 200823Z 24009KT 25/11 A3012 RMK A01 T02520106  RH  041%=      5-min Rain = 0
KGU1 200824Z 23007KT 25/11 A3012 RMK A01 T02510106  RH  041%=      5-min Rain = 0
KGU1 200825Z 24008KT 25/11 A3012 RMK A01 T02500106  RH  042%=      5-min Rain = 0
KGU1 200826Z 24009KT 25/11 A3012 RMK A01 T02500106  RH  042%=      5-min Rain = 0
KGU1 200827Z 25009KT 25/11 A3012 RMK A01 T02490106  RH  042%=      5-min Rain = 0
KGU1 200828Z 25010KT 25/11 A3012 RMK A01 T02490105  RH  042%=      5-min Rain = 0
KGU1 200829Z 25010KT 25/11 A3012 RMK A01 T02500106  RH  042%=      5-min Rain = 0
KGU1 200830Z 25010KT 25/11 A3012 RMK A01 T02500106  RH  042%=      5-min Rain = 0
KGU1 200831Z 24012KT 25/11 A3012 RMK A01 T02490106  RH  042%=      5-min Rain = 0
KGU1 200832Z 24011G17KT 25/11 A3011 RMK A01 T02500105  RH  042%=      5-min Rain = 0
KGU1 200833Z 24010G15KT 25/11 A3011 RMK A01 T02500106  RH  042%=      5-min Rain = 0
KGU1 200834Z 23010KT 25/11 A3011 RMK A01 T02510106  RH  041%=      5-min Rain = 0
KGU1 200835Z 24011KT 25/11 A3011 RMK A01 T02510105  RH  041%=      5-min Rain = 0
KGU1 200836Z 24011KT 25/11 A3011 RMK A01 T02510106  RH  041%=      5-min Rain = 0
KGU1 200837Z 24012KT 25/11 A3011 RMK A01 T02500105  RH  041%=      5-min Rain = 0
KGU1 200838Z 24010KT 25/11 A3011 RMK A01 T02510105  RH  041%=      5-min Rain = 0
KGU1 200839Z 23008KT 25/11 A3011 RMK A01 T02510105  RH  041%=      5-min Rain = 0
KGU1 200840Z 24011KT 25/11 A3011 RMK A01 T02500105  RH  041%=      5-min Rain = 0
KGU1 200841Z 24011KT 25/10 A3011 RMK A01 T02500104  RH  041%=      5-min Rain = 0
KGU1 200842Z 23011KT 25/11 A3011 RMK A01 T02510105  RH  041%=      5-min Rain = 0
KGU1 200843Z 24015KT 25/11 A3011 RMK A01 T02510105  RH  041%=      5-min Rain = 0
KGU1 200844Z 24014KT 25/11 A3011 RMK A01 T02530105  RH  041%=      5-min Rain = 0
KGU1 200845Z 23010KT 25/10 A3011 RMK A01 T02530104  RH  040%=      5-min Rain = 0
KGU1 200846Z 24011KT 25/10 A3011 RMK A01 T02520104  RH  041%=      5-min Rain = 0
KGU1 200847Z 23011KT 25/10 A3011 RMK A01 T02520104  RH  041%=      5-min Rain = 0
KGU1 200848Z 24011KT 25/10 A3011 RMK A01 T02510104  RH  041%=      5-min Rain = 0
KGU1 200849Z 24011KT 25/10 A3011 RMK A01 T02510104  RH  041%=      5-min Rain = 0
KGU1 200850Z 24012KT 25/10 A3011 RMK A01 T02520104  RH  041%=      5-min Rain = 0
KGU1 200851Z 24012KT 25/10 A3011 RMK A01 T02520104  RH  041%=      5-min Rain = 0
KGU1 200852Z 25012KT 25/10 A3011 RMK A01 T02510104  RH  041%=      5-min Rain = 0
KGU1 200853Z 24011KT 25/10 A3011 RMK A01 T02510104  RH  041%=      5-min Rain = 0
KGU1 200854Z 25013KT 25/10 A3011 RMK A01 T02510104  RH  041%=      5-min Rain = 0
KGU1 200855Z 24011KT 25/10 A3011 RMK A01 T02510104  RH  041%=      5-min Rain = 0
KGU1 200856Z 24011KT 25/10 A3011 RMK A01 T02510104  RH  041%=      5-min Rain = 0
KGU1 200857Z 24011KT 25/10 A3011 RMK A01 T02500104  RH  041%=      5-min Rain = 0
KGU1 200858Z 24011KT 25/10 A3011 RMK A01 T02500104  RH  041%=      5-min Rain = 0
KGU1 200859Z 24014KT 25/10 A3011 RMK A01 T02490104  RH  041%=      5-min Rain = 0
KGU1 200900Z 24011KT 25/11 A3011 RMK A01 T02500105  RH  041%=      5-min Rain = 0
KGU1 200901Z 24010KT 25/10 A3011 RMK A01 T02510104  RH  041%=      5-min Rain = 0
KGU1 200902Z 24011KT 25/10 A3011 RMK A01 T02500104  RH  041%=      5-min Rain = 0
KGU1 200903Z 24011KT 25/10 A3011 RMK A01 T02500104  RH  041%=      5-min Rain = 0
KGU1 200904Z 24013KT 25/10 A3011 RMK A01 T02500104  RH  041%=      5-min Rain = 0
KGU1 200905Z 25014KT 25/10 A3011 RMK A01 T02510104  RH  041%=      5-min Rain = 0
KGU1 200906Z 25016KT 25/10 A3011 RMK A01 T02510104  RH  041%=      5-min Rain = 0
KGU1 200907Z 24011KT 25/11 A3011 RMK A01 T02510105  RH  041%=      5-min Rain = 0
KGU1 200908Z 23010KT 25/11 A3011 RMK A01 T02500105  RH  041%=      5-min Rain = 0
KGU1 200909Z 24011KT 25/10 A3011 RMK A01 T02490104  RH  041%=      5-min Rain = 0
KGU1 200910Z 24013KT 25/10 A3011 RMK A01 T02490104  RH  041%=      5-min Rain = 0
KGU1 200911Z 24011KT 25/10 A3011 RMK A01 T02490104  RH  041%=      5-min Rain = 0
KGU1 200912Z 24012KT 25/10 A3011 RMK A01 T02490103  RH  041%=      5-min Rain = 0
KGU1 200913Z 24013KT 25/10 A3011 RMK A01 T02500104  RH  041%=      5-min Rain = 0
KGU1 200914Z 24014KT 25/10 A3011 RMK A01 T02500104  RH  041%=      5-min Rain = 0
KGU1 200915Z 24012KT 25/10 A3011 RMK A01 T02500104  RH  041%=      5-min Rain = 0
KGU1 200916Z 24016KT 25/10 A3011 RMK A01 T02500104  RH  041%=      5-min Rain = 0
KGU1 200917Z 24014KT 25/10 A3011 RMK A01 T02500104  RH  041%=      5-min Rain = 0
KGU1 200918Z 24012KT 25/11 A3011 RMK A01 T02500105  RH  041%=      5-min Rain = 0
KGU1 200919Z 23012KT 25/11 A3011 RMK A01 T02500105  RH  041%=      5-min Rain = 0
KGU1 200920Z 24013KT 25/10 A3011 RMK A01 T02490104  RH  042%=      5-min Rain = 0
KGU1 200921Z 24011KT 25/10 A3011 RMK A01 T02490104  RH  042%=      5-min Rain = 0
KGU1 200922Z 24011KT 25/10 A3011 RMK A01 T02480104  RH  041%=      5-min Rain = 0
KGU1 200923Z 24013KT 25/10 A301 RMK A01 T02490104  RH  041%=      5-min Rain = 0
KGU1 200924Z 24015KT 25/10 A301 RMK A01 T02490104  RH  042%=      5-min Rain = 0
KGU1 200925Z 24012KT 25/11 A301 RMK A01 T02490105  RH  042%=      5-min Rain = 0
KGU1 200926Z 23010KT 25/10 A301 RMK A01 T02490104  RH  042%=      5-min Rain = 0
KGU1 200927Z 24011KT 25/10 A301 RMK A01 T02480104  RH  042%=      5-min Rain = 0
KGU1 200928Z 23010KT 25/10 A301 RMK A01 T02480104  RH  042%=      5-min Rain = 0
KGU1 200929Z 24012KT 25/10 A301 RMK A01 T02470104  RH  042%=      5-min Rain = 0
KGU1 200930Z 23011KT 25/10 A301 RMK A01 T02470104  RH  042%=      5-min Rain = 0
KGU1 200931Z 24011KT 25/11 A301 RMK A01 T02470105  RH  042%=      5-min Rain = 0
KGU1 200932Z 23010KT 25/11 A301 RMK A01 T02460105  RH  042%=      5-min Rain = 0
KGU1 200933Z 23010KT 25/11 A301 RMK A01 T02460105  RH  043%=      5-min Rain = 0
KGU1 200934Z 23011G16KT 25/11 A301 RMK A01 T02450105  RH  043%=      5-min Rain = 0
KGU1 200935Z 24013KT 25/11 A301 RMK A01 T02450105  RH  043%=      5-min Rain = 0
KGU1 200936Z 23011KT 25/11 A301 RMK A01 T02460105  RH  043%=      5-min Rain = 0
KGU1 200937Z 23011KT 25/11 A3011 RMK A01 T02450106  RH  043%=      5-min Rain = 0
KGU1 200938Z 24011KT 25/11 A301 RMK A01 T02450106  RH  043%=      5-min Rain = 0
KGU1 200939Z 24012KT 25/11 A301 RMK A01 T02450106  RH  043%=      5-min Rain = 0
KGU1 200940Z 24011KT 25/11 A301 RMK A01 T02450107  RH  043%=      5-min Rain = 0
KGU1 200941Z 24012KT 24/11 A301 RMK A01 T02440107  RH  043%=      5-min Rain = 0
KGU1 200942Z 23010KT 24/11 A301 RMK A01 T02440107  RH  043%=      5-min Rain = 0
KGU1 200943Z 24010KT 24/11 A301 RMK A01 T02440107  RH  044%=      5-min Rain = 0
KGU1 200944Z 23012KT 24/11 A301 RMK A01 T02430107  RH  044%=      5-min Rain = 0
KGU1 200945Z 24012KT 24/11 A301 RMK A01 T02430107  RH  044%=      5-min Rain = 0
KGU1 200946Z 24013KT 24/11 A301 RMK A01 T02430106  RH  044%=      5-min Rain = 0
KGU1 200947Z 24011KT 24/11 A301 RMK A01 T02440106  RH  043%=      5-min Rain = 0
KGU1 200948Z 24013KT 24/11 A301 RMK A01 T02440106  RH  043%=      5-min Rain = 0
KGU1 200949Z 24013KT 25/11 A301 RMK A01 T02450106  RH  043%=      5-min Rain = 0
KGU1 200950Z 24012KT 25/11 A301 RMK A01 T02450105  RH  043%=      5-min Rain = 0
KGU1 200951Z 24012KT 25/11 A301 RMK A01 T02450105  RH  043%=      5-min Rain = 0
KGU1 200952Z 23012KT 25/11 A301 RMK A01 T02450105  RH  043%=      5-min Rain = 0
KGU1 200953Z 23011KT 25/11 A301 RMK A01 T02450106  RH  043%=      5-min Rain = 0
KGU1 200954Z 23009KT 24/11 A301 RMK A01 T02440106  RH  043%=      5-min Rain = 0
KGU1 200955Z 23011G17KT 24/11 A301 RMK A01 T02430106  RH  044%=      5-min Rain = 0
KGU1 200956Z 23011KT 24/11 A301 RMK A01 T02420106  RH  044%=      5-min Rain = 0
KGU1 200957Z 23013KT 24/11 A301 RMK A01 T02420107  RH  044%=      5-min Rain = 0
KGU1 200958Z 22014KT 24/11 A301 RMK A01 T02420106  RH  044%=      5-min Rain = 0
KGU1 200959Z 23014KT 24/11 A301 RMK A01 T02430106  RH  044%=      5-min Rain = 0
KGU1 201000Z 23012KT 24/11 A301 RMK A01 T02430106  RH  044%=      5-min Rain = 0
KGU1 201001Z 22013G18KT 24/11 A301 RMK A01 T02430108  RH  044%=      5-min Rain = 0
KGU1 201002Z 23011KT 24/11 A301 RMK A01 T02430108  RH  044%=      5-min Rain = 0
KGU1 201003Z 23011KT 24/11 A301 RMK A01 T02420108  RH  044%=      5-min Rain = 0
KGU1 201004Z 23015KT 24/11 A301 RMK A01 T02420108  RH  045%=      5-min Rain = 0
KGU1 201005Z 24012KT 24/11 A301 RMK A01 T02420108  RH  045%=      5-min Rain = 0
KGU1 201006Z 24012G19KT 24/11 A301 RMK A01 T02420108  RH  045%=      5-min Rain = 0
KGU1 201007Z 23012KT 24/11 A301 RMK A01 T02420109  RH  045%=      5-min Rain = 0
KGU1 201008Z 24013G18KT 24/11 A301 RMK A01 T02410109  RH  045%=      5-min Rain = 0
KGU1 201009Z 24011KT 24/11 A301 RMK A01 T02410109  RH  045%=      5-min Rain = 0
KGU1 201010Z 23012KT 24/11 A301 RMK A01 T02400109  RH  045%=      5-min Rain = 0
KGU1 201011Z 23012KT 24/11 A301 RMK A01 T02400109  RH  045%=      5-min Rain = 0
KGU1 201012Z 24012KT 24/11 A301 RMK A01 T02400109  RH  045%=      5-min Rain = 0
KGU1 201013Z 23011KT 24/11 A301 RMK A01 T02400109  RH  045%=      5-min Rain = 0
KGU1 201014Z 22015KT 24/11 A301 RMK A01 T02400109  RH  045%=      5-min Rain = 0
KGU1 201015Z 22013KT 24/11 A301 RMK A01 T02400109  RH  045%=      5-min Rain = 0
KGU1 201016Z 22012KT 24/11 A301 RMK A01 T02390109  RH  045%=      5-min Rain = 0
KGU1 201017Z 23010KT 24/11 A301 RMK A01 T02390109  RH  046%=      5-min Rain = 0
KGU1 201018Z 23010KT 24/11 A301 RMK A01 T02390108  RH  045%=      5-min Rain = 0
KGU1 201019Z 23011KT 24/11 A301 RMK A01 T02390108  RH  045%=      5-min Rain = 0
KGU1 201020Z 23009G14KT 24/11 A3011 RMK A01 T02390109  RH  045%=      5-min Rain = 0
KGU1 201021Z 23011KT 24/11 A3011 RMK A01 T02380108  RH  046%=      5-min Rain = 0
KGU1 201022Z 23010KT 24/11 A3011 RMK A01 T02370108  RH  046%=      5-min Rain = 0
KGU1 201023Z 23010KT 24/11 A3011 RMK A01 T02370108  RH  046%=      5-min Rain = 0
KGU1 201024Z 24010KT 24/11 A3011 RMK A01 T02370108  RH  046%=      5-min Rain = 0
KGU1 201025Z 23011G16KT 24/11 A3011 RMK A01 T02380108  RH  046%=      5-min Rain = 0
KGU1 201026Z 23009KT 24/11 A3011 RMK A01 T02380108  RH  046%=      5-min Rain = 0
KGU1 201027Z 22009KT 24/11 A3011 RMK A01 T02370108  RH  046%=      5-min Rain = 0
KGU1 201028Z 23009KT 24/11 A3011 RMK A01 T02370108  RH  046%=      5-min Rain = 0
KGU1 201029Z 23008KT 24/11 A3011 RMK A01 T02370108  RH  046%=      5-min Rain = 0
KGU1 201030Z 23011KT 24/11 A3011 RMK A01 T02360108  RH  046%=      5-min Rain = 0
KGU1 201031Z 23010KT 24/11 A3011 RMK A01 T02360108  RH  046%=      5-min Rain = 0
KGU1 201032Z 23010KT 24/11 A3011 RMK A01 T02360108  RH  046%=      5-min Rain = 0
KGU1 201033Z 23011KT 24/11 A3011 RMK A01 T02350108  RH  046%=      5-min Rain = 0
KGU1 201034Z 23010KT 24/11 A3011 RMK A01 T02350108  RH  046%=      5-min Rain = 0
KGU1 201035Z 23010KT 24/11 A3011 RMK A01 T02350108  RH  046%=      5-min Rain = 0
KGU1 201036Z 22010KT 24/11 A3011 RMK A01 T02350108  RH  046%=      5-min Rain = 0
KGU1 201037Z 23013KT 24/11 A3011 RMK A01 T02350107  RH  046%=      5-min Rain = 0
KGU1 201038Z 23010KT 24/11 A3011 RMK A01 T02360107  RH  046%=      5-min Rain = 0
KGU1 201039Z 23010KT 24/11 A3011 RMK A01 T02360107  RH  046%=      5-min Rain = 0
KGU1 201040Z 22010KT 24/11 A3011 RMK A01 T02360108  RH  046%=      5-min Rain = 0
KGU1 201041Z 22011KT 24/11 A3011 RMK A01 T02350107  RH  046%=      5-min Rain = 0
KGU1 201042Z 22011KT 24/11 A3011 RMK A01 T02350107  RH  046%=      5-min Rain = 0
KGU1 201043Z 22012KT 24/11 A3011 RMK A01 T02350107  RH  046%=      5-min Rain = 0
KGU1 201044Z 23010KT 24/11 A3011 RMK A01 T02360107  RH  046%=      5-min Rain = 0
KGU1 201045Z 23010KT 24/11 A3011 RMK A01 T02360107  RH  046%=      5-min Rain = 0
KGU1 201046Z 23010KT 24/11 A3011 RMK A01 T02360107  RH  046%=      5-min Rain = 0
KGU1 201047Z 23009KT 24/11 A3011 RMK A01 T02360106  RH  045%=      5-min Rain = 0
KGU1 201048Z 23010KT 24/10 A3011 RMK A01 T02370104  RH  045%=      5-min Rain = 0
KGU1 201049Z 24012G17KT 24/10 A3011 RMK A01 T02370104  RH  044%=      5-min Rain = 0
KGU1 201050Z 25013KT 24/09 A301 RMK A01 T02400094  RH  041%=      5-min Rain = 0
KGU1 201051Z 25012KT 25/09 A301 RMK A01 T02450091  RH  039%=      5-min Rain = 0
KGU1 201052Z 24013KT 25/09 A301 RMK A01 T02470090  RH  038%=      5-min Rain = 0
KGU1 201053Z 23012KT 25/09 A301 RMK A01 T02480090  RH  038%=      5-min Rain = 0
KGU1 201054Z 25014KT 25/09 A301 RMK A01 T02500089  RH  037%=      5-min Rain = 0
KGU1 201055Z 25016KT 25/09 A301 RMK A01 T02510089  RH  037%=      5-min Rain = 0
KGU1 201056Z 24014KT 25/09 A301 RMK A01 T02520089  RH  037%=      5-min Rain = 0
KGU1 201057Z 25016KT 25/09 A301 RMK A01 T02520089  RH  036%=      5-min Rain = 0
KGU1 201058Z 25015KT 25/09 A301 RMK A01 T02530089  RH  036%=      5-min Rain = 0
KGU1 201059Z 24012G18KT 25/09 A3011 RMK A01 T02530089  RH  036%=      5-min Rain = 0
KGU1 201100Z 25013KT 25/09 A3011 RMK A01 T02520089  RH  037%=      5-min Rain = 0
KGU1 201101Z 24015KT 25/09 A301 RMK A01 T02520089  RH  037%=      5-min Rain = 0
KGU1 201102Z 25014KT 25/09 A301 RMK A01 T02520089  RH  037%=      5-min Rain = 0
KGU1 201103Z 24011KT 25/09 A3011 RMK A01 T02520089  RH  037%=      5-min Rain = 0
KGU1 201104Z 24009KT 25/09 A3011 RMK A01 T02510089  RH  037%=      5-min Rain = 0
KGU1 201105Z 24012KT 25/09 A3011 RMK A01 T02500089  RH  037%=      5-min Rain = 0
KGU1 201106Z 24015KT 25/09 A301 RMK A01 T02500090  RH  037%=      5-min Rain = 0
KGU1 201107Z 25016KT 25/09 A301 RMK A01 T02510090  RH  037%=      5-min Rain = 0
KGU1 201108Z 25017KT 25/09 A301 RMK A01 T02510091  RH  037%=      5-min Rain = 0
KGU1 201109Z 24014KT 25/09 A301 RMK A01 T02510091  RH  037%=      5-min Rain = 0
KGU1 201110Z 24012G18KT 25/09 A3011 RMK A01 T02510090  RH  037%=      5-min Rain = 0
KGU1 201111Z 24013KT 25/09 A3011 RMK A01 T02500090  RH  037%=      5-min Rain = 0
KGU1 201112Z 24011G16KT 25/09 A3011 RMK A01 T02490090  RH  037%=      5-min Rain = 0
KGU1 201113Z 24013KT 25/09 A301 RMK A01 T02490091  RH  038%=      5-min Rain = 0
KGU1 201114Z 23011G16KT 25/09 A301 RMK A01 T02490091  RH  038%=      5-min Rain = 0
KGU1 201115Z 24012KT 25/09 A301 RMK A01 T02480092  RH  038%=      5-min Rain = 0
KGU1 201116Z 24011KT 25/09 A3011 RMK A01 T02480092  RH  038%=      5-min Rain = 0
KGU1 201117Z 24012KT 25/09 A3011 RMK A01 T02480093  RH  039%=      5-min Rain = 0
KGU1 201118Z 24010KT 25/09 A3011 RMK A01 T02480094  RH  039%=      5-min Rain = 0
KGU1 201119Z 23009KT 25/09 A3011 RMK A01 T02480094  RH  039%=      5-min Rain = 0
KGU1 201120Z 23011KT 25/09 A3011 RMK A01 T02470094  RH  039%=      5-min Rain = 0
KGU1 201121Z 24009G14KT 25/09 A3011 RMK A01 T02470094  RH  039%=      5-min Rain = 0
KGU1 201122Z 25009KT 25/09 A3011 RMK A01 T02470094  RH  039%=      5-min Rain = 0
KGU1 201123Z 24009KT 25/09 A3011 RMK A01 T02470094  RH  039%=      5-min Rain = 0
KGU1 201124Z 24009KT 25/10 A3011 RMK A01 T02470095  RH  039%=      5-min Rain = 0
KGU1 201125Z 25010KT 25/10 A3011 RMK A01 T02470095  RH  039%=      5-min Rain = 0
KGU1 201126Z 25009KT 25/10 A3011 RMK A01 T02480096  RH  039%=      5-min Rain = 0
KGU1 201127Z 25010KT 25/10 A3011 RMK A01 T02480096  RH  040%=      5-min Rain = 0
KGU1 201128Z 26010KT 25/10 A3011 RMK A01 T02480097  RH  040%=      5-min Rain = 0
KGU1 201129Z 26010KT 25/10 A3011 RMK A01 T02480097  RH  040%=      5-min Rain = 0
KGU1 201130Z 25009KT 25/10 A3011 RMK A01 T02470097  RH  040%=      5-min Rain = 0
KGU1 201131Z 26006KT 25/10 A3011 RMK A01 T02480097  RH  040%=      5-min Rain = 0
KGU1 201132Z 26008KT 25/10 A3011 RMK A01 T02470098  RH  040%=      5-min Rain = 0
KGU1 201133Z 26008KT 25/10 A3011 RMK A01 T02470099  RH  041%=      5-min Rain = 0
KGU1 201134Z 25006KT 25/10 A3011 RMK A01 T02480100  RH  040%=      5-min Rain = 0
KGU1 201135Z 25009G14KT 25/10 A3011 RMK A01 T02480101  RH  041%=      5-min Rain = 0
KGU1 201136Z 26011G17KT 25/10 A3011 RMK A01 T02480102  RH  041%=      5-min Rain = 0
KGU1 201137Z 26009KT 25/10 A3011 RMK A01 T02480102  RH  041%=      5-min Rain = 0
KGU1 201138Z 25009KT 25/10 A3011 RMK A01 T02490103  RH  041%=      5-min Rain = 0
KGU1 201139Z 25011G16KT 25/10 A3011 RMK A01 T02480103  RH  041%=      5-min Rain = 0
KGU1 201140Z 25010G15KT 25/10 A3011 RMK A01 T02490103  RH  041%=      5-min Rain = 0
KGU1 201141Z 26010KT 25/10 A3011 RMK A01 T02490103  RH  041%=      5-min Rain = 0
KGU1 201142Z 26008KT 25/10 A3011 RMK A01 T02500103  RH  041%=      5-min Rain = 0
KGU1 201143Z 26007KT 25/10 A3011 RMK A01 T02500103  RH  041%=      5-min Rain = 0
KGU1 201144Z 26007KT 25/10 A3011 RMK A01 T02490102  RH  041%=      5-min Rain = 0
KGU1 201145Z 27006KT 25/10 A3011 RMK A01 T02490102  RH  041%=      5-min Rain = 0
KGU1 201146Z 26005KT 25/10 A3011 RMK A01 T02480102  RH  041%=      5-min Rain = 0
KGU1 201147Z 25005KT 25/10 A3011 RMK A01 T02480102  RH  041%=      5-min Rain = 0
KGU1 201148Z 28009KT 25/10 A3011 RMK A01 T02480102  RH  041%=      5-min Rain = 0
KGU1 201149Z 28009KT 25/10 A3011 RMK A01 T02460103  RH  042%=      5-min Rain = 0
KGU1 201150Z 26007KT 25/10 A3011 RMK A01 T02460103  RH  042%=      5-min Rain = 0
KGU1 201151Z 26002KT 25/10 A3011 RMK A01 T02450102  RH  042%=      5-min Rain = 0
KGU1 201152Z 27007KT 24/10 A3011 RMK A01 T02440102  RH  042%=      5-min Rain = 0
KGU1 201153Z 27009KT 24/10 A3011 RMK A01 T02440103  RH  042%=      5-min Rain = 0
KGU1 201154Z 25007KT 25/10 A3011 RMK A01 T02450102  RH  042%=      5-min Rain = 0
KGU1 201155Z 28009KT 25/10 A3011 RMK A01 T02460103  RH  042%=      5-min Rain = 0
KGU1 201156Z 27008KT 25/10 A3011 RMK A01 T02460104  RH  042%=      5-min Rain = 0
KGU1 201157Z 28006KT 25/10 A3011 RMK A01 T02460104  RH  042%=      5-min Rain = 0
KGU1 201158Z 28010G15KT 25/10 A3011 RMK A01 T02450104  RH  043%=      5-min Rain = 0
KGU1 201159Z 27011KT 25/11 A3011 RMK A01 T02450105  RH  043%=      5-min Rain = 0
KGU1 201200Z 28012G17KT 25/11 A3011 RMK A01 T02460105  RH  043%=      5-min Rain = 0
KGU1 201201Z 29012KT 25/11 A3011 RMK A01 T02460105  RH  043%=      5-min Rain = 0
KGU1 201202Z 28010KT 25/11 A3011 RMK A01 T02460105  RH  043%=      5-min Rain = 0
KGU1 201203Z 29013KT 25/11 A3011 RMK A01 T02460105  RH  043%=      5-min Rain = 0
KGU1 201204Z 28010KT 25/11 A3011 RMK A01 T02460105  RH  042%=      5-min Rain = 0
KGU1 201205Z 28012KT 25/11 A3011 RMK A01 T02460105  RH  042%=      5-min Rain = 0
KGU1 201206Z 28010KT 25/11 A3011 RMK A01 T02460105  RH  042%=      5-min Rain = 0
KGU1 201207Z 28012G18KT 25/11 A3011 RMK A01 T02460105  RH  042%=      5-min Rain = 0
KGU1 201208Z 28012KT 25/11 A3011 RMK A01 T02460105  RH  042%=      5-min Rain = 0
KGU1 201209Z 29011KT 25/11 A3011 RMK A01 T02460105  RH  042%=      5-min Rain = 0
KGU1 201210Z 29011G17KT 25/11 A3011 RMK A01 T02460105  RH  043%=      5-min Rain = 0
KGU1 201211Z 28013KT 25/11 A3011 RMK A01 T02450105  RH  042%=      5-min Rain = 0
KGU1 201212Z 29013KT 25/11 A3011 RMK A01 T02470105  RH  042%=      5-min Rain = 0
KGU1 201213Z 28015KT 25/10 A3011 RMK A01 T02480103  RH  042%=      5-min Rain = 0
KGU1 201214Z 29015KT 25/10 A3011 RMK A01 T02490104  RH  041%=      5-min Rain = 0
KGU1 201215Z 29014KT 25/10 A3011 RMK A01 T02490104  RH  041%=      5-min Rain = 0
KGU1 201216Z 29015G20KT 25/11 A3011 RMK A01 T02490105  RH  042%=      5-min Rain = 0
KGU1 201217Z 29016KT 25/11 A3011 RMK A01 T02490105  RH  042%=      5-min Rain = 0
KGU1 201218Z 29015KT 25/11 A301 RMK A01 T02500105  RH  041%=      5-min Rain = 0
KGU1 201219Z 29017KT 25/11 A301 RMK A01 T02500105  RH  041%=      5-min Rain = 0
KGU1 201220Z 29015KT 25/11 A301 RMK A01 T02500105  RH  041%=      5-min Rain = 0
KGU1 201221Z 29016G21KT 25/10 A3011 RMK A01 T02500104  RH  041%=      5-min Rain = 0
KGU1 201222Z 29015KT 25/10 A301 RMK A01 T02500104  RH  041%=      5-min Rain = 0
KGU1 201223Z 29016KT 25/10 A3011 RMK A01 T02510104  RH  041%=      5-min Rain = 0
KGU1 201224Z 29016KT 25/11 A3011 RMK A01 T02510105  RH  041%=      5-min Rain = 0
KGU1 201225Z 28013G18KT 25/11 A3011 RMK A01 T02510106  RH  041%=      5-min Rain = 0
KGU1 201226Z 29015KT 25/11 A301 RMK A01 T02500106  RH  042%=      5-min Rain = 0
KGU1 201227Z 29016KT 25/11 A3011 RMK A01 T02500106  RH  042%=      5-min Rain = 0
KGU1 201228Z 28013KT 25/10 A3011 RMK A01 T02510104  RH  041%=      5-min Rain = 0
KGU1 201229Z 28014G19KT 25/10 A3011 RMK A01 T02510104  RH  041%=      5-min Rain = 0
KGU1 201230Z 28015KT 25/11 A3011 RMK A01 T02510105  RH  041%=      5-min Rain = 0
KGU1 201231Z 29017KT 25/11 A3011 RMK A01 T02510105  RH  041%=      5-min Rain = 0
KGU1 201232Z 29015G20KT 25/10 A301 RMK A01 T02520104  RH  041%=      5-min Rain = 0
KGU1 201233Z 29013KT 25/10 A3011 RMK A01 T02530104  RH  040%=      5-min Rain = 0
KGU1 201234Z 29014KT 25/11 A3011 RMK A01 T02530105  RH  041%=      5-min Rain = 0
KGU1 201235Z 28013KT 25/10 A3011 RMK A01 T02530104  RH  041%=      5-min Rain = 0
KGU1 201236Z 29014KT 25/10 A301 RMK A01 T02530104  RH  040%=      5-min Rain = 0
KGU1 201237Z 28014KT 25/10 A3011 RMK A01 T02540102  RH  040%=      5-min Rain = 0
KGU1 201238Z 29015KT 26/10 A3011 RMK A01 T02560103  RH  039%=      5-min Rain = 0
KGU1 201239Z 28013KT 26/10 A3011 RMK A01 T02560102  RH  039%=      5-min Rain = 0
KGU1 201240Z 29014KT 26/10 A3011 RMK A01 T02570103  RH  039%=      5-min Rain = 0
KGU1 201241Z 29014KT 26/11 A3011 RMK A01 T02560105  RH  040%=      5-min Rain = 0
KGU1 201242Z 28012KT 26/11 A3011 RMK A01 T02550106  RH  040%=      5-min Rain = 0
KGU1 201243Z 28013G18KT 26/10 A3011 RMK A01 T02550104  RH  040%=      5-min Rain = 0
KGU1 201244Z 27012KT 26/10 A3011 RMK A01 T02570104  RH  039%=      5-min Rain = 0
KGU1 201245Z 29012G17KT 26/11 A3011 RMK A01 T02570105  RH  040%=      5-min Rain = 0
KGU1 201246Z 27015KT 26/11 A3011 RMK A01 T02570105  RH  040%=      5-min Rain = 0
KGU1 201247Z 28013KT 26/11 A3011 RMK A01 T02570105  RH  040%=      5-min Rain = 0
KGU1 201248Z 29016KT 26/11 A3011 RMK A01 T02570107  RH  040%=      5-min Rain = 0
KGU1 201249Z 28017KT 26/11 A3011 RMK A01 T02560106  RH  040%=      5-min Rain = 0
KGU1 201250Z 28017KT 26/11 A3011 RMK A01 T02570105  RH  040%=      5-min Rain = 0
KGU1 201251Z 29017G22KT 26/11 A3011 RMK A01 T02570106  RH  040%=      5-min Rain = 0
KGU1 201252Z 29017G22KT 26/11 A3011 RMK A01 T02560108  RH  041%=      5-min Rain = 0
KGU1 201253Z 30017G22KT 26/11 A3011 RMK A01 T02550108  RH  041%=      5-min Rain = 0
KGU1 201254Z 29015KT 26/11 A3011 RMK A01 T02550107  RH  041%=      5-min Rain = 0
KGU1 201255Z 29015KT 26/11 A3011 RMK A01 T02550108  RH  041%=      5-min Rain = 0
KGU1 201256Z 29015KT 25/11 A3011 RMK A01 T02540108  RH  041%=      5-min Rain = 0
KGU1 201257Z 30016KT 25/11 A3011 RMK A01 T02540109  RH  041%=      5-min Rain = 0
KGU1 201258Z 30016G21KT 25/11 A3011 RMK A01 T02540109  RH  041%=      5-min Rain = 0
KGU1 201259Z 29014G19KT 26/11 A3011 RMK A01 T02550108  RH  041%=      5-min Rain = 0
KGU1 201300Z 29018KT 26/11 A3011 RMK A01 T02560107  RH  041%=      5-min Rain = 0
KGU1 201301Z 30016G21KT 26/11 A3011 RMK A01 T02560109  RH  041%=      5-min Rain = 0
KGU1 201302Z 29017KT 26/11 A3011 RMK A01 T02560108  RH  041%=      5-min Rain = 0
KGU1 201303Z 29014G20KT 26/11 A3011 RMK A01 T02570109  RH  041%=      5-min Rain = 0
KGU1 201304Z 29014KT 26/11 A3011 RMK A01 T02570110  RH  041%=      5-min Rain = 0
KGU1 201305Z 29015KT 26/11 A3011 RMK A01 T02570109  RH  041%=      5-min Rain = 0
KGU1 201306Z 29015KT 26/11 A3011 RMK A01 T02570109  RH  041%=      5-min Rain = 0
KGU1 201307Z 29015KT 26/11 A3011 RMK A01 T02570108  RH  041%=      5-min Rain = 0
KGU1 201308Z 29014KT 26/11 A3011 RMK A01 T02580108  RH  040%=      5-min Rain = 0
KGU1 201309Z 29014KT 26/11 A3011 RMK A01 T02600105  RH  039%=      5-min Rain = 0
KGU1 201310Z 29013KT 26/11 A3011 RMK A01 T02600108  RH  040%=      5-min Rain = 0
KGU1 201311Z 30017KT 26/11 A3011 RMK A01 T02600108  RH  040%=      5-min Rain = 0
KGU1 201312Z 30014G19KT 26/11 A3011 RMK A01 T02590110  RH  041%=      5-min Rain = 0
KGU1 201313Z 30016G21KT 26/11 A3011 RMK A01 T02580109  RH  041%=      5-min Rain = 0
KGU1 201314Z 30019KT 26/11 A3011 RMK A01 T02580109  RH  041%=      5-min Rain = 0
KGU1 201315Z 30017KT 26/11 A3011 RMK A01 T02580108  RH  040%=      5-min Rain = 0
KGU1 201316Z 30016G21KT 26/11 A3011 RMK A01 T02590108  RH  040%=      5-min Rain = 0
KGU1 201317Z 30016KT 26/11 A3011 RMK A01 T02590109  RH  041%=      5-min Rain = 0
KGU1 201318Z 29015G20KT 26/11 A3011 RMK A01 T02590109  RH  041%=      5-min Rain = 0
KGU1 201319Z 30017KT 26/11 A3011 RMK A01 T02590109  RH  040%=      5-min Rain = 0
KGU1 201320Z 30017KT 26/11 A3011 RMK A01 T02600107  RH  040%=      5-min Rain = 0
KGU1 201321Z 30013G18KT 26/11 A3011 RMK A01 T02610108  RH  040%=      5-min Rain = 0
KGU1 201322Z 29013KT 26/11 A3011 RMK A01 T02620106  RH  039%=      5-min Rain = 0
KGU1 201323Z 29011G16KT 26/11 A3011 RMK A01 T02640106  RH  038%=      5-min Rain = 0
KGU1 201324Z 29014KT 27/11 A3011 RMK A01 T02650107  RH  038%=      5-min Rain = 0
KGU1 201325Z 29012KT 27/11 A3011 RMK A01 T02660107  RH  038%=      5-min Rain = 0
KGU1 201326Z 29015KT 27/11 A3011 RMK A01 T02670105  RH  037%=      5-min Rain = 0
KGU1 201327Z 29014KT 27/10 A3011 RMK A01 T02690101  RH  036%=      5-min Rain = 0
KGU1 201328Z 29014KT 27/10 A3011 RMK A01 T02710101  RH  036%=      5-min Rain = 0
KGU1 201329Z 29012KT 27/10 A3011 RMK A01 T02720099  RH  035%=      5-min Rain = 0
KGU1 201330Z 29012KT 27/10 A3011 RMK A01 T02740101  RH  035%=      5-min Rain = 0
KGU1 201331Z 29014KT 27/10 A3011 RMK A01 T02730103  RH  036%=      5-min Rain = 0
KGU1 201332Z 30016KT 27/10 A3011 RMK A01 T02710104  RH  036%=      5-min Rain = 0
KGU1 201333Z 29012G17KT 27/10 A3011 RMK A01 T02710100  RH  035%=      5-min Rain = 0
KGU1 201334Z 29013KT 27/10 A3011 RMK A01 T02730102  RH  035%=      5-min Rain = 0
KGU1 201335Z 29014KT 27/10 A3011 RMK A01 T02740100  RH  035%=      5-min Rain = 0
KGU1 201336Z 29014KT 27/10 A3011 RMK A01 T02740100  RH  035%=      5-min Rain = 0
KGU1 201337Z 29017KT 27/10 A3011 RMK A01 T02730101  RH  035%=      5-min Rain = 0
KGU1 201338Z 29013KT 27/10 A3011 RMK A01 T02720101  RH  035%=      5-min Rain = 0
KGU1 201339Z 30015KT 27/10 A3011 RMK A01 T02730102  RH  035%=      5-min Rain = 0
KGU1 201340Z 29017KT 27/10 A3012 RMK A01 T02730101  RH  035%=      5-min Rain = 0
KGU1 201341Z 29016G23KT 27/10 A3011 RMK A01 T02740099  RH  035%=      5-min Rain = 0
KGU1 201342Z 29016KT 28/10 A3011 RMK A01 T02750097  RH  034%=      5-min Rain = 0
KGU1 201343Z 28013KT 28/10 A3012 RMK A01 T02760098  RH  034%=      5-min Rain = 0
KGU1 201344Z 29015G20KT 28/10 A3012 RMK A01 T02770099  RH  034%=      5-min Rain = 0
KGU1 201345Z 29016KT 28/10 A3012 RMK A01 T02760100  RH  034%=      5-min Rain = 0
KGU1 201346Z 29016KT 28/10 A3012 RMK A01 T02750102  RH  035%=      5-min Rain = 0
KGU1 201347Z 29015KT 27/10 A3012 RMK A01 T02740101  RH  035%=      5-min Rain = 0
KGU1 201348Z 28015G20KT 28/10 A3012 RMK A01 T02750101  RH  035%=      5-min Rain = 0
KGU1 201349Z 29018KT 28/10 A3012 RMK A01 T02750100  RH  034%=      5-min Rain = 0
KGU1 201350Z 29017KT 27/10 A3012 RMK A01 T02740099  RH  034%=      5-min Rain = 0
KGU1 201351Z 29014KT 28/10 A3012 RMK A01 T02750099  RH  034%=      5-min Rain = 0
KGU1 201352Z 28013G20KT 28/10 A3012 RMK A01 T02760100  RH  034%=      5-min Rain = 0
KGU1 201353Z 28015KT 28/10 A3012 RMK A01 T02780097  RH  033%=      5-min Rain = 0
KGU1 201354Z 29013KT 28/10 A3012 RMK A01 T02780097  RH  033%=      5-min Rain = 0
KGU1 201355Z 29012KT 28/10 A3013 RMK A01 T02790098  RH  033%=      5-min Rain = 0
KGU1 201356Z 29016KT 28/10 A3013 RMK A01 T02790097  RH  033%=      5-min Rain = 0
KGU1 201357Z 29015KT 28/10 A3013 RMK A01 T02790096  RH  033%=      5-min Rain = 0
KGU1 201358Z 28013KT 28/10 A3013 RMK A01 T02790095  RH  033%=      5-min Rain = 0
KGU1 201359Z 28013KT 28/10 A3013 RMK A01 T02800096  RH  033%=      5-min Rain = 0
KGU1 201400Z 29012G18KT 28/10 A3013 RMK A01 T02800096  RH  033%=      5-min Rain = 0
KGU1 201401Z 28010KT 28/10 A3013 RMK A01 T02810096  RH  032%=      5-min Rain = 0
KGU1 201402Z 28009KT 28/10 A3013 RMK A01 T02830096  RH  032%=      5-min Rain = 0
KGU1 201403Z 28008KT 29/10 A3013 RMK A01 T02850097  RH  032%=      5-min Rain = 0
KGU1 201404Z 27009KT 29/10 A3013 RMK A01 T02870097  RH  031%=      5-min Rain = 0
KGU1 201405Z 28009KT 29/10 A3013 RMK A01 T02870095  RH  031%=      5-min Rain = 0
KGU1 201406Z 27008KT 29/10 A3013 RMK A01 T02880095  RH  031%=      5-min Rain = 0
KGU1 201407Z 28010KT 29/10 A3013 RMK A01 T02890095  RH  031%=      5-min Rain = 0
KGU1 201408Z 27012KT 29/09 A3013 RMK A01 T02890094  RH  030%=      5-min Rain = 0
KGU1 201409Z 27011KT 29/09 A3013 RMK A01 T02880093  RH  031%=      5-min Rain = 0
KGU1 201410Z 29013KT 29/09 A3013 RMK A01 T02880094  RH  031%=      5-min Rain = 0
KGU1 201411Z 28014G19KT 29/09 A3013 RMK A01 T02870093  RH  031%=      5-min Rain = 0
KGU1 201412Z 28014KT 29/09 A3013 RMK A01 T02860093  RH  031%=      5-min Rain = 0
KGU1 201413Z 29013KT 29/09 A3013 RMK A01 T02860093  RH  031%=      5-min Rain = 0
KGU1 201414Z 29016KT 29/09 A3013 RMK A01 T02860092  RH  031%=      5-min Rain = 0
KGU1 201415Z 28013G18KT 29/09 A3013 RMK A01 T02860093  RH  031%=      5-min Rain = 0
KGU1 201416Z 29015KT 29/09 A3013 RMK A01 T02860093  RH  031%=      5-min Rain = 0
KGU1 201417Z 28012G18KT 29/09 A3013 RMK A01 T02870094  RH  031%=      5-min Rain = 0
KGU1 201418Z 28008G16KT 29/10 A3013 RMK A01 T02890095  RH  031%=      5-min Rain = 0
KGU1 201419Z 27011G17KT 29/09 A3013 RMK A01 T02910094  RH  030%=      5-min Rain = 0
KGU1 201420Z 27010G15KT 29/09 A3013 RMK A01 T02910094  RH  030%=      5-min Rain = 0
KGU1 201421Z 27011KT 29/09 A3013 RMK A01 T02910094  RH  030%=      5-min Rain = 0
KGU1 201422Z 27008KT 29/09 A3013 RMK A01 T02910093  RH  030%=      5-min Rain = 0
KGU1 201423Z 27009KT 29/10 A3013 RMK A01 T02920095  RH  030%=      5-min Rain = 0
KGU1 201424Z 27009KT 29/09 A3013 RMK A01 T02940094  RH  030%=      5-min Rain = 0
KGU1 201425Z 27010KT 29/09 A3013 RMK A01 T02940093  RH  029%=      5-min Rain = 0
KGU1 201426Z 27008KT 29/09 A3013 RMK A01 T02930094  RH  030%=      5-min Rain = 0
KGU1 201427Z 27006KT 30/09 A3013 RMK A01 T02950094  RH  030%=      5-min Rain = 0
KGU1 201428Z 27010KT 30/09 A3013 RMK A01 T02960094  RH  029%=      5-min Rain = 0
KGU1 201429Z 26010KT 30/09 A3013 RMK A01 T02960093  RH  029%=      5-min Rain = 0
KGU1 201430Z 26009KT 30/09 A3013 RMK A01 T02970093  RH  029%=      5-min Rain = 0
KGU1 201431Z 26010G15KT 30/09 A3013 RMK A01 T02960093  RH  029%=      5-min Rain = 0
KGU1 201432Z 26011KT 30/09 A3013 RMK A01 T02950092  RH  029%=      5-min Rain = 0
KGU1 201433Z 26014KT 30/09 A3013 RMK A01 T02950091  RH  029%=      5-min Rain = 0
KGU1 201434Z 26010KT 29/09 A3013 RMK A01 T02930091  RH  029%=      5-min Rain = 0
KGU1 201435Z 26009KT 29/09 A3013 RMK A01 T02930091  RH  029%=      5-min Rain = 0
KGU1 201436Z 28008G13KT 29/09 A3013 RMK A01 T02940092  RH  029%=      5-min Rain = 0
KGU1 201437Z 25009G16KT 30/09 A3013 RMK A01 T02970093  RH  029%=      5-min Rain = 0
KGU1 201438Z 25013KT 30/09 A3013 RMK A01 T02970091  RH  029%=      5-min Rain = 0
KGU1 201439Z 28009KT 30/09 A3013 RMK A01 T02950091  RH  029%=      5-min Rain = 0
KGU1 201440Z 25005KT 29/09 A3013 RMK A01 T02940091  RH  029%=      5-min Rain = 0
KGU1 201441Z 27006KT 30/09 A3013 RMK A01 T02960093  RH  029%=      5-min Rain = 0
KGU1 201442Z 27009KT 30/09 A3013 RMK A01 T02980093  RH  029%=      5-min Rain = 0
KGU1 201443Z 27008KT 30/09 A3013 RMK A01 T02990092  RH  028%=      5-min Rain = 0
KGU1 201444Z 27008KT 30/09 A3013 RMK A01 T02980091  RH  028%=      5-min Rain = 0
KGU1 201445Z 26011KT 30/09 A3013 RMK A01 T02970091  RH  029%=      5-min Rain = 0
KGU1 201446Z 28009KT 30/09 A3013 RMK A01 T02960092  RH  029%=      5-min Rain = 0
KGU1 201447Z 27008KT 30/09 A3013 RMK A01 T02980092  RH  029%=      5-min Rain = 0
KGU1 201448Z 27008KT 30/09 A3013 RMK A01 T02990092  RH  028%=      5-min Rain = 0
KGU1 201449Z 28011KT 30/09 A3013 RMK A01 T03000092  RH  028%=      5-min Rain = 0
KGU1 201450Z 27013KT 30/09 A3013 RMK A01 T02990091  RH  028%=      5-min Rain = 0
KGU1 201451Z 28011KT 30/09 A3013 RMK A01 T02960091  RH  029%=      5-min Rain = 0
KGU1 201452Z 27010KT 30/09 A3013 RMK A01 T02960091  RH  029%=      5-min Rain = 0
KGU1 201453Z 27011KT 30/09 A3013 RMK A01 T02980092  RH  028%=      5-min Rain = 0
KGU1 201454Z 28014KT 30/09 A3013 RMK A01 T02980091  RH  028%=      5-min Rain = 0
KGU1 201455Z 27010KT 30/09 A3013 RMK A01 T02980091  RH  028%=      5-min Rain = 0
KGU1 201456Z 29012KT 30/09 A3014 RMK A01 T02990090  RH  028%=      5-min Rain = 0
KGU1 201457Z 27009KT 30/09 A3013 RMK A01 T03000092  RH  028%=      5-min Rain = 0
KGU1 201458Z 27009KT 30/09 A3013 RMK A01 T03020092  RH  028%=      5-min Rain = 0
KGU1 201459Z 28015KT 30/09 A3013 RMK A01 T03010090  RH  028%=      5-min Rain = 0
KGU1 201500Z 28009G15KT 30/09 A3013 RMK A01 T02990090  RH  028%=      5-min Rain = 0
KGU1 201501Z 28011G17KT 30/09 A3013 RMK A01 T03000091  RH  028%=      5-min Rain = 0
KGU1 201502Z 28009KT 30/09 A3013 RMK A01 T02990091  RH  028%=      5-min Rain = 0
KGU1 201503Z 27010KT 30/09 A3013 RMK A01 T03000091  RH  028%=      5-min Rain = 0
KGU1 201504Z 26007KT 30/09 A3013 RMK A01 T03010091  RH  028%=      5-min Rain = 0
KGU1 201505Z 27007KT 30/09 A3013 RMK A01 T03020091  RH  028%=      5-min Rain = 0
KGU1 201506Z 27007KT 30/09 A3013 RMK A01 T03030092  RH  028%=      5-min Rain = 0
KGU1 201507Z 28010KT 31/09 A3013 RMK A01 T03050092  RH  027%=      5-min Rain = 0
KGU1 201508Z 26006G12KT 31/09 A3013 RMK A01 T03050093  RH  028%=      5-min Rain = 0
KGU1 201509Z 27008KT 31/09 A3013 RMK A01 T03090094  RH  027%=      5-min Rain = 0
KGU1 201510Z 27010KT 31/09 A3013 RMK A01 T03100093  RH  027%=      5-min Rain = 0
KGU1 201511Z 28011KT 31/09 A3013 RMK A01 T03070092  RH  027%=      5-min Rain = 0
KGU1 201512Z 26009KT 31/09 A3013 RMK A01 T03060093  RH  027%=      5-min Rain = 0
KGU1 201513Z 26012KT 31/09 A3013 RMK A01 T03070093  RH  027%=      5-min Rain = 0
KGU1 201514Z 26011KT 31/09 A3013 RMK A01 T03050093  RH  028%=      5-min Rain = 0
KGU1 201515Z 26010KT 31/09 A3013 RMK A01 T03050094  RH  028%=      5-min Rain = 0
KGU1 201516Z 25012G17KT 31/09 A3013 RMK A01 T03050093  RH  028%=      5-min Rain = 0
KGU1 201517Z 26009KT 30/09 A3013 RMK A01 T03020093  RH  028%=      5-min Rain = 0
KGU1 201518Z 26008G14KT 31/09 A3013 RMK A01 T03050094  RH  028%=      5-min Rain = 0
KGU1 201519Z 27011KT 31/09 A3013 RMK A01 T03050093  RH  028%=      5-min Rain = 0
KGU1 201520Z 28011KT 30/09 A3013 RMK A01 T03030092  RH  028%=      5-min Rain = 0
KGU1 201521Z 29011KT 30/09 A3013 RMK A01 T03020092  RH  028%=      5-min Rain = 0
KGU1 201522Z 28011KT 30/09 A3013 RMK A01 T03030093  RH  028%=      5-min Rain = 0
KGU1 201523Z 28011KT 30/09 A3013 RMK A01 T03030092  RH  028%=      5-min Rain = 0
KGU1 201524Z 28011G17KT 30/09 A3013 RMK A01 T03030093  RH  028%=      5-min Rain = 0
KGU1 201525Z 28011G16KT 31/09 A3013 RMK A01 T03050093  RH  028%=      5-min Rain = 0
KGU1 201526Z 27012KT 31/09 A3013 RMK A01 T03060093  RH  027%=      5-min Rain = 0
KGU1 201527Z 27010KT 31/09 A3013 RMK A01 T03060093  RH  027%=      5-min Rain = 0
KGU1 201528Z 29012KT 31/09 A3013 RMK A01 T03070093  RH  027%=      5-min Rain = 0
KGU1 201529Z 28013G18KT 31/09 A3013 RMK A01 T03050093  RH  028%=      5-min Rain = 0
KGU1 201530Z 28012KT 30/09 A3013 RMK A01 T03040094  RH  028%=      5-min Rain = 0
KGU1 201531Z 29012G20KT 31/09 A3013 RMK A01 T03050093  RH  028%=      5-min Rain = 0
KGU1 201532Z 29012KT 30/09 A3013 RMK A01 T03030092  RH  028%=      5-min Rain = 0
KGU1 201533Z 27009KT 30/09 A3013 RMK A01 T03030093  RH  028%=      5-min Rain = 0
KGU1 201534Z 29012G19KT 31/09 A3013 RMK A01 T03050092  RH  027%=      5-min Rain = 0
KGU1 201535Z 28016KT 31/09 A3013 RMK A01 T03050091  RH  027%=      5-min Rain = 0
KGU1 201536Z 28015G20KT 30/09 A3013 RMK A01 T03040091  RH  027%=      5-min Rain = 0
KGU1 201537Z 27012KT 30/09 A3013 RMK A01 T03030091  RH  028%=      5-min Rain = 0
KGU1 201538Z 28011KT 30/09 A3013 RMK A01 T03040091  RH  027%=      5-min Rain = 0
KGU1 201539Z 27010KT 31/09 A3013 RMK A01 T03060092  RH  027%=      5-min Rain = 0
KGU1 201540Z 28010KT 31/09 A3014 RMK A01 T03060090  RH  027%=      5-min Rain = 0
KGU1 201541Z 29014KT 30/09 A3014 RMK A01 T03040090  RH  027%=      5-min Rain = 0
KGU1 201542Z 29013KT 30/09 A3014 RMK A01 T03020090  RH  027%=      5-min Rain = 0
KGU1 201543Z 29010G15KT 31/09 A3014 RMK A01 T03060091  RH  027%=      5-min Rain = 0
KGU1 201544Z 29011G16KT 31/09 A3014 RMK A01 T03080090  RH  027%=      5-min Rain = 0
KGU1 201545Z 28010KT 31/09 A3014 RMK A01 T03090090  RH  026%=      5-min Rain = 0
KGU1 201546Z 28013KT 31/09 A3014 RMK A01 T03080089  RH  027%=      5-min Rain = 0
KGU1 201547Z 29012KT 31/09 A3014 RMK A01 T03050089  RH  027%=      5-min Rain = 0
KGU1 201548Z 27007G12KT 31/09 A3014 RMK A01 T03060090  RH  027%=      5-min Rain = 0
KGU1 201549Z 29010G17KT 31/09 A3014 RMK A01 T03100090  RH  026%=      5-min Rain = 0
KGU1 201550Z 28013KT 31/09 A3014 RMK A01 T03120089  RH  026%=      5-min Rain = 0
KGU1 201551Z 29014KT 31/09 A3014 RMK A01 T03100088  RH  026%=      5-min Rain = 0
KGU1 201552Z 29013KT 31/09 A3014 RMK A01 T03070087  RH  026%=      5-min Rain = 0
KGU1 201553Z 28011KT 31/09 A3014 RMK A01 T03060088  RH  027%=      5-min Rain = 0
KGU1 201554Z 27009G16KT 31/09 A3014 RMK A01 T03080089  RH  026%=      5-min Rain = 0
KGU1 201555Z 28012KT 31/09 A3014 RMK A01 T03110089  RH  026%=      5-min Rain = 0
KGU1 201556Z 28012KT 31/09 A3014 RMK A01 T03100088  RH  026%=      5-min Rain = 0
KGU1 201557Z 28011KT 31/09 A3014 RMK A01 T03080088  RH  026%=      5-min Rain = 0
KGU1 201558Z 28016KT 31/09 A3014 RMK A01 T03100088  RH  026%=      5-min Rain = 0
KGU1 201559Z 29012KT 31/09 A3014 RMK A01 T03090088  RH  026%=      5-min Rain = 0
KGU1 201600Z 27015KT 31/09 A3013 RMK A01 T03100088  RH  026%=      5-min Rain = 0
KGU1 201601Z 28016G21KT 31/09 A3014 RMK A01 T03090087  RH  026%=      5-min Rain = 0
KGU1 201602Z 29016KT 31/09 A3014 RMK A01 T03070087  RH  026%=      5-min Rain = 0
KGU1 201603Z 28014KT 31/09 A3014 RMK A01 T03070087  RH  026%=      5-min Rain = 0
KGU1 201604Z 28016KT 31/09 A3014 RMK A01 T03060087  RH  026%=      5-min Rain = 0
KGU1 201605Z 28012KT 31/09 A3014 RMK A01 T03060087  RH  026%=      5-min Rain = 0
KGU1 201606Z 28016KT 31/09 A3014 RMK A01 T03090088  RH  026%=      5-min Rain = 0
KGU1 201607Z 28015KT 31/09 A3014 RMK A01 T03090087  RH  026%=      5-min Rain = 0
KGU1 201608Z 29013KT 31/09 A3014 RMK A01 T03100087  RH  026%=      5-min Rain = 0
KGU1 201609Z 28012KT 31/09 A3014 RMK A01 T03110088  RH  026%=      5-min Rain = 0
KGU1 201610Z 28013G18KT 31/09 A3014 RMK A01 T03120088  RH  026%=      5-min Rain = 0
KGU1 201611Z 29014KT 31/09 A3014 RMK A01 T03120087  RH  025%=      5-min Rain = 0
KGU1 201612Z 30015KT 31/09 A3014 RMK A01 T03090086  RH  026%=      5-min Rain = 0
KGU1 201613Z 30014G19KT 31/09 A3014 RMK A01 T03060085  RH  026%=      5-min Rain = 0
KGU1 201614Z 30014G20KT 31/09 A3014 RMK A01 T03070086  RH  026%=      5-min Rain = 0
KGU1 201615Z 30014KT 31/09 A3014 RMK A01 T03080086  RH  026%=      5-min Rain = 0
KGU1 201616Z 29013KT 31/09 A3014 RMK A01 T03080086  RH  026%=      5-min Rain = 0
KGU1 201617Z 27013G19KT 31/09 A3013 RMK A01 T03100087  RH  026%=      5-min Rain = 0
KGU1 201618Z 29014KT 31/09 A3014 RMK A01 T03120086  RH  025%=      5-min Rain = 0
KGU1 201619Z 28013KT 31/09 A3014 RMK A01 T03110086  RH  026%=      5-min Rain = 0
KGU1 201620Z 29012KT 31/09 A3014 RMK A01 T03140087  RH  025%=      5-min Rain = 0
KGU1 201621Z 30011KT 32/09 A3014 RMK A01 T03150087  RH  025%=      5-min Rain = 0
KGU1 201622Z 28011KT 32/09 A3014 RMK A01 T03150087  RH  025%=      5-min Rain = 0
KGU1 201623Z 27012KT 32/09 A3013 RMK A01 T03170087  RH  025%=      5-min Rain = 0
KGU1 201624Z 28014KT 32/09 A3013 RMK A01 T03150086  RH  025%=      5-min Rain = 0
KGU1 201625Z 27011KT 31/09 A3013 RMK A01 T03130087  RH  025%=      5-min Rain = 0
KGU1 201626Z 27012KT 31/09 A3013 RMK A01 T03130086  RH  025%=      5-min Rain = 0
KGU1 201627Z 27010KT 31/09 A3013 RMK A01 T03130087  RH  025%=      5-min Rain = 0
KGU1 201628Z 27014KT 32/09 A3013 RMK A01 T03150087  RH  025%=      5-min Rain = 0
KGU1 201629Z 29010KT 31/09 A3014 RMK A01 T03140086  RH  025%=      5-min Rain = 0
KGU1 201630Z 28011KT 32/09 A3014 RMK A01 T03160087  RH  025%=      5-min Rain = 0
KGU1 201631Z 28012KT 32/09 A3014 RMK A01 T03170087  RH  025%=      5-min Rain = 0
KGU1 201632Z 28012KT 32/09 A3014 RMK A01 T03180088  RH  025%=      5-min Rain = 0
KGU1 201633Z 28014KT 32/09 A3014 RMK A01 T03170087  RH  025%=      5-min Rain = 0
KGU1 201634Z 27011KT 32/09 A3014 RMK A01 T03170087  RH  025%=      5-min Rain = 0
KGU1 201635Z 28013KT 32/09 A3014 RMK A01 T03170087  RH  025%=      5-min Rain = 0
KGU1 201636Z 27013KT 32/09 A3014 RMK A01 T03160087  RH  025%=      5-min Rain = 0
KGU1 201637Z 28011KT 32/09 A3014 RMK A01 T03160087  RH  025%=      5-min Rain = 0
KGU1 201638Z 28012KT 32/09 A3014 RMK A01 T03160088  RH  025%=      5-min Rain = 0
KGU1 201639Z 28015G20KT 32/09 A3014 RMK A01 T03180087  RH  025%=      5-min Rain = 0
KGU1 201640Z 29013KT 32/09 A3014 RMK A01 T03170087  RH  025%=      5-min Rain = 0
KGU1 201641Z 29013KT 32/09 A3014 RMK A01 T03180087  RH  025%=      5-min Rain = 0
KGU1 201642Z 30014KT 32/09 A3014 RMK A01 T03180087  RH  025%=      5-min Rain = 0
KGU1 201643Z 30015KT 32/09 A3014 RMK A01 T03170087  RH  025%=      5-min Rain = 0
KGU1 201644Z 29014KT 31/09 A3014 RMK A01 T03140086  RH  025%=      5-min Rain = 0
KGU1 201645Z 29013KT 32/09 A3014 RMK A01 T03150087  RH  025%=      5-min Rain = 0
KGU1 201646Z 29015KT 32/09 A3014 RMK A01 T03180088  RH  025%=      5-min Rain = 0
KGU1 201647Z 29014KT 32/09 A3014 RMK A01 T03170086  RH  025%=      5-min Rain = 0
KGU1 201648Z 30012KT 32/09 A3014 RMK A01 T03150086  RH  025%=      5-min Rain = 0
KGU1 201649Z 29014G19KT 31/09 A3014 RMK A01 T03140085  RH  025%=      5-min Rain = 0
KGU1 201650Z 30011KT 32/09 A3014 RMK A01 T03160086  RH  025%=      5-min Rain = 0
KGU1 201651Z 31012KT 32/09 A3014 RMK A01 T03160087  RH  025%=      5-min Rain = 0
KGU1 201652Z 30012KT 32/09 A3014 RMK A01 T03170086  RH  025%=      5-min Rain = 0
KGU1 201653Z 28008KT 32/09 A3014 RMK A01 T03170088  RH  025%=      5-min Rain = 0
KGU1 201654Z 29011KT 32/09 A3014 RMK A01 T03220089  RH  024%=      5-min Rain = 0
KGU1 201655Z 29013G18KT 33/09 A3014 RMK A01 T03250087  RH  024%=      5-min Rain = 0
KGU1 201656Z 30011KT 32/09 A3014 RMK A01 T03240087  RH  024%=      5-min Rain = 0
KGU1 201657Z 31011KT 33/09 A3014 RMK A01 T03260087  RH  024%=      5-min Rain = 0
KGU1 201658Z 31012KT 33/09 A3014 RMK A01 T03260088  RH  024%=      5-min Rain = 0
KGU1 201659Z 31012KT 33/09 A3014 RMK A01 T03250087  RH  024%=      5-min Rain = 0
KGU1 201700Z 31013KT 32/09 A3014 RMK A01 T03210088  RH  024%=      5-min Rain = 0
KGU1 201701Z 30014KT 32/09 A3014 RMK A01 T03180088  RH  025%=      5-min Rain = 0
KGU1 201702Z 30012KT 32/09 A3014 RMK A01 T03180088  RH  025%=      5-min Rain = 0
KGU1 201703Z 30013KT 32/09 A3014 RMK A01 T03210088  RH  024%=      5-min Rain = 0
KGU1 201704Z 31013KT 32/09 A3014 RMK A01 T03200087  RH  024%=      5-min Rain = 0
KGU1 201705Z 31010KT 32/09 A3014 RMK A01 T03190087  RH  025%=      5-min Rain = 0
KGU1 201706Z 31010KT 32/09 A3014 RMK A01 T03190087  RH  025%=      5-min Rain = 0
KGU1 201707Z 32012KT 32/09 A3014 RMK A01 T03230086  RH  024%=      5-min Rain = 0
KGU1 201708Z 31008KT 32/09 A3014 RMK A01 T03210087  RH  024%=      5-min Rain = 0
KGU1 201709Z 31011KT 32/09 A3014 RMK A01 T03240087  RH  024%=      5-min Rain = 0
KGU1 201710Z 29011KT 32/09 A3014 RMK A01 T03240087  RH  024%=      5-min Rain = 0
KGU1 201711Z 30009KT 32/09 A3014 RMK A01 T03230087  RH  024%=      5-min Rain = 0
KGU1 201712Z 30009KT 32/09 A3014 RMK A01 T03240088  RH  024%=      5-min Rain = 0
KGU1 201713Z 30012KT 33/09 A3014 RMK A01 T03250088  RH  024%=      5-min Rain = 0
KGU1 201714Z 31012KT 33/09 A3014 RMK A01 T03250086  RH  023%=      5-min Rain = 0
KGU1 201715Z 30014KT 32/09 A3014 RMK A01 T03210086  RH  024%=      5-min Rain = 0
KGU1 201716Z 29010KT 32/09 A3014 RMK A01 T03170086  RH  025%=      5-min Rain = 0
KGU1 201717Z 29012G17KT 32/09 A3014 RMK A01 T03160086  RH  025%=      5-min Rain = 0
KGU1 201718Z 31010KT 32/09 A3014 RMK A01 T03180087  RH  025%=      5-min Rain = 0
KGU1 201719Z 29011G16KT 32/09 A3014 RMK A01 T03190087  RH  024%=      5-min Rain = 0
KGU1 201720Z 30014KT 32/09 A3014 RMK A01 T03200085  RH  024%=      5-min Rain = 0
KGU1 201721Z 31013KT 32/08 A3014 RMK A01 T03200084  RH  024%=      5-min Rain = 0
KGU1 201722Z 30011KT 32/08 A3014 RMK A01 T03200084  RH  024%=      5-min Rain = 0
KGU1 201723Z 32011KT 32/09 A3014 RMK A01 T03240085  RH  024%=      5-min Rain = 0
KGU1 201724Z 32011KT 32/08 A3014 RMK A01 T03230084  RH  023%=      5-min Rain = 0
KGU1 201725Z 31012KT 32/09 A3014 RMK A01 T03230085  RH  024%=      5-min Rain = 0
KGU1 201726Z 30009KT 32/09 A3014 RMK A01 T03220085  RH  024%=      5-min Rain = 0
KGU1 201727Z 30009KT 32/09 A3014 RMK A01 T03230087  RH  024%=      5-min Rain = 0
KGU1 201728Z 29010KT 33/09 A3014 RMK A01 T03290087  RH  023%=      5-min Rain = 0
KGU1 201729Z 30011KT 33/09 A3014 RMK A01 T03290085  RH  023%=      5-min Rain = 0
KGU1 201730Z 31009KT 33/08 A3014 RMK A01 T03280084  RH  023%=      5-min Rain = 0
KGU1 201731Z 31009KT 32/08 A3014 RMK A01 T03240083  RH  023%=      5-min Rain = 0
KGU1 201732Z 33009KT 32/09 A3014 RMK A01 T03230086  RH  024%=      5-min Rain = 0
KGU1 201733Z 28010KT 33/09 A3014 RMK A01 T03270088  RH  024%=      5-min Rain = 0
KGU1 201734Z 29012KT 33/09 A3014 RMK A01 T03320086  RH  023%=      5-min Rain = 0
KGU1 201735Z 30007KT 33/09 A3014 RMK A01 T03300085  RH  023%=      5-min Rain = 0
KGU1 201736Z 30008KT 33/09 A3014 RMK A01 T03330085  RH  022%=      5-min Rain = 0
KGU1 201737Z 29009KT 33/08 A3014 RMK A01 T03300079  RH  022%=      5-min Rain = 0
KGU1 201738Z 29011KT 33/09 A3014 RMK A01 T03270085  RH  023%=      5-min Rain = 0
KGU1 201739Z 30013KT 33/08 A3014 RMK A01 T03310082  RH  022%=      5-min Rain = 0
KGU1 201740Z 31012KT 33/09 A3014 RMK A01 T03300085  RH  023%=      5-min Rain = 0
KGU1 201741Z 32010KT 33/08 A3014 RMK A01 T03300084  RH  023%=      5-min Rain = 0
KGU1 201742Z 31008KT 33/08 A3014 RMK A01 T03320080  RH  022%=      5-min Rain = 0
KGU1 201743Z 30010KT 33/08 A3014 RMK A01 T03280079  RH  022%=      5-min Rain = 0
KGU1 201744Z 31011KT 33/08 A3014 RMK A01 T03270081  RH  022%=      5-min Rain = 0
KGU1 201745Z 30010G15KT 33/08 A3014 RMK A01 T03250084  RH  023%=      5-min Rain = 0
KGU1 201746Z 30013KT 33/08 A3014 RMK A01 T03250083  RH  023%=      5-min Rain = 0
KGU1 201747Z 30009G14KT 33/08 A3014 RMK A01 T03260079  RH  022%=      5-min Rain = 0
KGU1 201748Z 30009KT 33/08 A3014 RMK A01 T03310078  RH  021%=      5-min Rain = 0
KGU1 201749Z 31010KT 33/08 A3014 RMK A01 T03290080  RH  022%=      5-min Rain = 0
KGU1 201750Z 30010KT 33/08 A3014 RMK A01 T03260080  RH  022%=      5-min Rain = 0
KGU1 201751Z 29011KT 33/08 A3014 RMK A01 T03250080  RH  023%=      5-min Rain = 0
KGU1 201752Z 30009KT 33/08 A3014 RMK A01 T03290079  RH  022%=      5-min Rain = 0
KGU1 201753Z 29010KT 33/08 A3014 RMK A01 T03320082  RH  022%=      5-min Rain = 0
KGU1 201754Z 29012KT 33/08 A3014 RMK A01 T03340083  RH  022%=      5-min Rain = 0
KGU1 201755Z 30010KT 33/08 A3014 RMK A01 T03310082  RH  022%=      5-min Rain = 0
KGU1 201756Z 28009KT 33/08 A3014 RMK A01 T03310083  RH  022%=      5-min Rain = 0
KGU1 201757Z 30011KT 33/08 A3014 RMK A01 T03340079  RH  021%=      5-min Rain = 0
KGU1 201758Z 30012KT 33/08 A3014 RMK A01 T03320076  RH  021%=      5-min Rain = 0
KGU1 201759Z 29010KT 33/08 A3014 RMK A01 T03280075  RH  021%=      5-min Rain = 0
KGU1 201800Z 30011KT 33/08 A3014 RMK A01 T03290081  RH  022%=      5-min Rain = 0
KGU1 201801Z 30011KT 33/08 A3014 RMK A01 T03330083  RH  022%=      5-min Rain = 0
KGU1 201802Z 30013KT 33/08 A3014 RMK A01 T03340080  RH  021%=      5-min Rain = 0
KGU1 201803Z 30009KT 33/08 A3014 RMK A01 T03310077  RH  021%=      5-min Rain = 0
KGU1 201804Z 31009KT 33/08 A3014 RMK A01 T03320080  RH  022%=      5-min Rain = 0
KGU1 201805Z 32012KT 33/08 A3014 RMK A01 T03340076  RH  021%=      5-min Rain = 0
KGU1 201806Z 31009KT 33/08 A3014 RMK A01 T03310075  RH  021%=      5-min Rain = 0
KGU1 201807Z 30011KT 33/08 A3014 RMK A01 T03330079  RH  021%=      5-min Rain = 0
KGU1 201808Z 31010KT 33/08 A3014 RMK A01 T03300076  RH  021%=      5-min Rain = 0
KGU1 201809Z 30011KT 33/08 A3014 RMK A01 T03280080  RH  022%=      5-min Rain = 0
KGU1 201810Z 30010KT 33/08 A3014 RMK A01 T03270078  RH  022%=      5-min Rain = 0
KGU1 201811Z 30007KT 33/08 A3014 RMK A01 T03250077  RH  022%=      5-min Rain = 0
KGU1 201812Z 31008KT 33/08 A3014 RMK A01 T03270079  RH  022%=      5-min Rain = 0
KGU1 201813Z 30011KT 33/08 A3014 RMK A01 T03290077  RH  022%=      5-min Rain = 0
KGU1 201814Z 30013KT 33/07 A3014 RMK A01 T03330065  RH  019%=      5-min Rain = 0
KGU1 201815Z 28009KT 33/07 A3014 RMK A01 T03310065  RH  020%=      5-min Rain = 0
KGU1 201816Z 25008KT 33/06 A3014 RMK A01 T03320064  RH  019%=      5-min Rain = 0
KGU1 201817Z 27006KT 33/07 A3014 RMK A01 T03310065  RH  020%=      5-min Rain = 0
KGU1 201818Z 26008G13KT 34/07 A3014 RMK A01 T03350069  RH  020%=      5-min Rain = 0
KGU1 201819Z 25014KT 34/06 A3013 RMK A01 T03360063  RH  019%=      5-min Rain = 0
KGU1 201820Z 29008KT 33/06 A3014 RMK A01 T03290064  RH  020%=      5-min Rain = 0
KGU1 201821Z 31003KT 32/06 A3014 RMK A01 T03240063  RH  020%=      5-min Rain = 0
KGU1 201822Z 27010G15KT 33/07 A3014 RMK A01 T03270065  RH  020%=      5-min Rain = 0
KGU1 201823Z 24009G14KT 33/06 A3014 RMK A01 T03300061  RH  019%=      5-min Rain = 0
KGU1 201824Z 27006KT 33/06 A3014 RMK A01 T03280062  RH  019%=      5-min Rain = 0
KGU1 201825Z 27010KT 33/06 A3014 RMK A01 T03310063  RH  019%=      5-min Rain = 0
KGU1 201826Z 26010KT 34/06 A3013 RMK A01 T03350062  RH  019%=      5-min Rain = 0
KGU1 201827Z 28008G13KT 33/06 A3013 RMK A01 T03330061  RH  019%=      5-min Rain = 0
KGU1 201828Z 29010G15KT 33/07 A3013 RMK A01 T03340065  RH  019%=      5-min Rain = 0
KGU1 201829Z 26008G13KT 34/06 A3014 RMK A01 T03380062  RH  019%=      5-min Rain = 0
KGU1 201830Z 24005KT 34/06 A3014 RMK A01 T03370064  RH  019%=      5-min Rain = 0
KGU1 201831Z 16008KT 34/06 A3014 RMK A01 T03400062  RH  018%=      5-min Rain = 0
KGU1 201832Z 10006KT 34/06 A3013 RMK A01 T03360063  RH  019%=      5-min Rain = 0
KGU1 201833Z 34004KT 33/07 A3013 RMK A01 T03320065  RH  019%=      5-min Rain = 0
KGU1 201834Z 30006KT 33/06 A3013 RMK A01 T03340064  RH  019%=      5-min Rain = 0
KGU1 201835Z 29004KT 33/06 A3013 RMK A01 T03330062  RH  019%=      5-min Rain = 0
KGU1 201836Z 28009G15KT 34/06 A3013 RMK A01 T03370063  RH  019%=      5-min Rain = 0
KGU1 201837Z 24010KT 34/06 A3013 RMK A01 T03390061  RH  018%=      5-min Rain = 0
KGU1 201838Z 21011KT 34/06 A3013 RMK A01 T03400062  RH  018%=      5-min Rain = 0
KGU1 201839Z 23007KT 34/06 A3014 RMK A01 T03370061  RH  018%=      5-min Rain = 0
KGU1 201840Z 22008KT 34/06 A3014 RMK A01 T03370060  RH  018%=      5-min Rain = 0
KGU1 201841Z 19006KT 34/06 A3014 RMK A01 T03350057  RH  018%=      5-min Rain = 0
KGU1 201842Z 18004KT 33/06 A3013 RMK A01 T03300059  RH  019%=      5-min Rain = 0
KGU1 201843Z 20002KT 33/06 A3013 RMK A01 T03280061  RH  019%=      5-min Rain = 0
KGU1 201844Z 22004KT 33/06 A3013 RMK A01 T03280062  RH  020%=      5-min Rain = 0
KGU1 201845Z 22005KT 33/06 A3013 RMK A01 T03290060  RH  019%=      5-min Rain = 0
KGU1 201846Z 17000KT 33/06 A3013 RMK A01 T03280061  RH  019%=      5-min Rain = 0
KGU1 201847Z 14003KT 33/06 A3013 RMK A01 T03280062  RH  020%=      5-min Rain = 0
KGU1 201848Z 19005KT 33/06 A3013 RMK A01 T03310063  RH  019%=      5-min Rain = 0
KGU1 201849Z 23008G13KT 33/06 A3013 RMK A01 T03320062  RH  019%=      5-min Rain = 0
KGU1 201850Z 20007KT 33/06 A3013 RMK A01 T03320061  RH  019%=      5-min Rain = 0
KGU1 201851Z 18006KT 33/06 A3013 RMK A01 T03320062  RH  019%=      5-min Rain = 0
KGU1 201852Z 20010KT 34/06 A3013 RMK A01 T03360062  RH  019%=      5-min Rain = 0
KGU1 201853Z 21009KT 34/06 A3013 RMK A01 T03390058  RH  018%=      5-min Rain = 0
KGU1 201854Z 20007KT 34/06 A3013 RMK A01 T03350057  RH  018%=      5-min Rain = 0
KGU1 201855Z 20007KT 33/06 A3013 RMK A01 T03330057  RH  018%=      5-min Rain = 0
KGU1 201856Z 22004KT 33/06 A3013 RMK A01 T03340058  RH  018%=      5-min Rain = 0
KGU1 201857Z 21005KT 33/06 A3013 RMK A01 T03330060  RH  019%=      5-min Rain = 0
KGU1 201858Z 24007KT 34/06 A3013 RMK A01 T03350059  RH  018%=      5-min Rain = 0
KGU1 201859Z 26005KT 33/06 A3013 RMK A01 T03340060  RH  019%=      5-min Rain = 0
KGU1 201900Z 24006KT 34/06 A3013 RMK A01 T03360060  RH  018%=      5-min Rain = 0
KGU1 201901Z 24004KT 33/06 A3013 RMK A01 T03340058  RH  018%=      5-min Rain = 0
KGU1 201902Z 22005G11KT 33/06 A3013 RMK A01 T03330062  RH  019%=      5-min Rain = 0
KGU1 201903Z 24011KT 33/07 A3013 RMK A01 T03340067  RH  020%=      5-min Rain = 0
KGU1 201904Z 25009KT 33/07 A3013 RMK A01 T03320065  RH  020%=      5-min Rain = 0
KGU1 201905Z 24005KT 33/07 A3013 RMK A01 T03290068  RH  020%=      5-min Rain = 0
KGU1 201906Z 22008G13KT 33/07 A3013 RMK A01 T03310071  RH  021%=      5-min Rain = 0
KGU1 201907Z 25011KT 33/07 A3013 RMK A01 T03330070  RH  020%=      5-min Rain = 0
KGU1 201908Z 24009KT 34/07 A3013 RMK A01 T03350065  RH  019%=      5-min Rain = 0
KGU1 201909Z 25011KT 34/07 A3013 RMK A01 T03350067  RH  019%=      5-min Rain = 0
KGU1 201910Z 27011KT 33/07 A3013 RMK A01 T03320069  RH  020%=      5-min Rain = 0
KGU1 201911Z 27010KT 33/06 A3013 RMK A01 T03330064  RH  019%=      5-min Rain = 0
KGU1 201912Z 29007KT 33/07 A3013 RMK A01 T03340065  RH  019%=      5-min Rain = 0
KGU1 201913Z 28008KT 33/07 A3013 RMK A01 T03340066  RH  019%=      5-min Rain = 0
KGU1 201914Z 27006KT 34/07 A3013 RMK A01 T03370065  RH  019%=      5-min Rain = 0
KGU1 201915Z 23008G13KT 34/07 A3013 RMK A01 T03370066  RH  019%=      5-min Rain = 0
KGU1 201916Z 22010KT 34/07 A3013 RMK A01 T03360065  RH  019%=      5-min Rain = 0
KGU1 201917Z 19005KT 33/07 A3013 RMK A01 T03310066  RH  020%=      5-min Rain = 0
KGU1 201918Z 22007KT 33/07 A3013 RMK A01 T03300071  RH  021%=      5-min Rain = 0
KGU1 201919Z 21011KT 34/08 A3013 RMK A01 T03360077  RH  021%=      5-min Rain = 0
KGU1 201920Z 25010KT 34/08 A3013 RMK A01 T03360075  RH  020%=      5-min Rain = 0
KGU1 201921Z 27010KT 34/07 A3013 RMK A01 T03370073  RH  020%=      5-min Rain = 0
KGU1 201922Z 21008KT 34/07 A3013 RMK A01 T03380073  RH  020%=      5-min Rain = 0
KGU1 201923Z 21008G13KT 34/07 A3013 RMK A01 T03360073  RH  020%=      5-min Rain = 0
KGU1 201924Z 23011KT 33/07 A3013 RMK A01 T03340074  RH  021%=      5-min Rain = 0
KGU1 201925Z 23007KT 33/07 A3013 RMK A01 T03320072  RH  021%=      5-min Rain = 0
KGU1 201926Z 21009KT 33/07 A3013 RMK A01 T03330069  RH  020%=      5-min Rain = 0
KGU1 201927Z 23008KT 34/07 A3013 RMK A01 T03360069  RH  020%=      5-min Rain = 0
KGU1 201928Z 25008KT 34/07 A3013 RMK A01 T03380073  RH  020%=      5-min Rain = 0
KGU1 201929Z 27007KT 34/07 A3013 RMK A01 T03400072  RH  020%=      5-min Rain = 0
KGU1 201930Z 23009KT 34/07 A3013 RMK A01 T03370073  RH  020%=      5-min Rain = 0
KGU1 201931Z 23009KT 34/07 A3012 RMK A01 T03390071  RH  020%=      5-min Rain = 0
KGU1 201932Z 25008KT 34/06 A3012 RMK A01 T03350064  RH  019%=      5-min Rain = 0
KGU1 201933Z 27010KT 33/07 A3012 RMK A01 T03340070  RH  020%=      5-min Rain = 0
KGU1 201934Z 26010KT 34/08 A3012 RMK A01 T03370077  RH  021%=      5-min Rain = 0
KGU1 201935Z 28010KT 34/08 A3012 RMK A01 T03360078  RH  021%=      5-min Rain = 0
KGU1 201936Z 25012G17KT 33/08 A3012 RMK A01 T03340076  RH  021%=      5-min Rain = 0
KGU1 201937Z 25011KT 33/07 A3012 RMK A01 T03320072  RH  020%=      5-min Rain = 0
KGU1 201938Z 23009KT 33/07 A3012 RMK A01 T03320074  RH  021%=      5-min Rain = 0
KGU1 201939Z 25012KT 33/07 A3012 RMK A01 T03330071  RH  020%=      5-min Rain = 0
KGU1 201940Z 24009KT 33/07 A3012 RMK A01 T03330070  RH  020%=      5-min Rain = 0
KGU1 201941Z 24011KT 34/07 A3012 RMK A01 T03350071  RH  020%=      5-min Rain = 0
KGU1 201942Z 23014KT 34/07 A3012 RMK A01 T03360069  RH  020%=      5-min Rain = 0
KGU1 201943Z 23010G16KT 33/07 A3012 RMK A01 T03320069  RH  020%=      5-min Rain = 0
KGU1 201944Z 22011G16KT 33/07 A3012 RMK A01 T03330071  RH  020%=      5-min Rain = 0
KGU1 201945Z 24012KT 34/07 A3012 RMK A01 T03350072  RH  020%=      5-min Rain = 0
KGU1 201946Z 24013KT 33/07 A3012 RMK A01 T03300074  RH  021%=      5-min Rain = 0
KGU1 201947Z 24013KT 33/08 A3012 RMK A01 T03270076  RH  022%=      5-min Rain = 0
KGU1 201948Z 23011G17KT 33/08 A3012 RMK A01 T03270077  RH  022%=      5-min Rain = 0
KGU1 201949Z 24011KT 33/08 A3012 RMK A01 T03260079  RH  022%=      5-min Rain = 0
KGU1 201950Z 25012KT 33/08 A3012 RMK A01 T03300077  RH  021%=      5-min Rain = 0
KGU1 201951Z 25009KT 33/07 A3012 RMK A01 T03310073  RH  021%=      5-min Rain = 0
KGU1 201952Z 25011KT 33/07 A3012 RMK A01 T03310070  RH  020%=      5-min Rain = 0
KGU1 201953Z 24009KT 33/07 A3012 RMK A01 T03300069  RH  020%=      5-min Rain = 0
KGU1 201954Z 25009KT 33/07 A3012 RMK A01 T03310067  RH  020%=      5-min Rain = 0
KGU1 201955Z 23010KT 33/07 A3012 RMK A01 T03320072  RH  021%=      5-min Rain = 0
KGU1 201956Z 23008KT 34/07 A3012 RMK A01 T03360073  RH  020%=      5-min Rain = 0
KGU1 201957Z 22009KT 34/07 A3011 RMK A01 T03400071  RH  019%=      5-min Rain = 0
KGU1 201958Z 23010KT 34/07 A3011 RMK A01 T03410072  RH  020%=      5-min Rain = 0
KGU1 201959Z 24011G16KT 34/07 A3011 RMK A01 T03380073  RH  020%=      5-min Rain = 0
KGU1 202000Z 26010G17KT 33/07 A3011 RMK A01 T03320073  RH  021%=      5-min Rain = 0
KGU1 202001Z 23011KT 33/08 A3011 RMK A01 T03340075  RH  021%=      5-min Rain = 0
KGU1 202002Z 24013KT 34/07 A3011 RMK A01 T03350073  RH  020%=      5-min Rain = 0
KGU1 202003Z 26012G17KT 33/07 A3011 RMK A01 T03320070  RH  020%=      5-min Rain = 0
KGU1 202004Z 26011G17KT 33/07 A3011 RMK A01 T03330068  RH  020%=      5-min Rain = 0
KGU1 202005Z 25014G19KT 33/07 A3011 RMK A01 T03330068  RH  020%=      5-min Rain = 0
KGU1 202006Z 25008KT 33/07 A3012 RMK A01 T03290070  RH  021%=      5-min Rain = 0
KGU1 202007Z 27008KT 33/07 A3011 RMK A01 T03300071  RH  021%=      5-min Rain = 0
KGU1 202008Z 27008G13KT 33/07 A3011 RMK A01 T03320070  RH  020%=      5-min Rain = 0
KGU1 202009Z 26009G14KT 33/07 A3011 RMK A01 T03290073  RH  021%=      5-min Rain = 0
KGU1 202010Z 22014G20KT 33/08 A3011 RMK A01 T03300075  RH  021%=      5-min Rain = 0
KGU1 202011Z 22009KT 33/08 A3011 RMK A01 T03290077  RH  022%=      5-min Rain = 0
KGU1 202012Z 23010KT 33/07 A3011 RMK A01 T03320074  RH  021%=      5-min Rain = 0
KGU1 202013Z 24009KT 33/07 A3011 RMK A01 T03330067  RH  020%=      5-min Rain = 0
KGU1 202014Z 21008KT 33/07 A3011 RMK A01 T03320068  RH  020%=      5-min Rain = 0
KGU1 202015Z 22005KT 33/07 A3011 RMK A01 T03330073  RH  021%=      5-min Rain = 0
KGU1 202016Z 26008KT 33/07 A3011 RMK A01 T03340068  RH  020%=      5-min Rain = 0
KGU1 202017Z 25006KT 33/06 A3011 RMK A01 T03340060  RH  019%=      5-min Rain = 0
KGU1 202018Z 22006KT 34/06 A3011 RMK A01 T03350060  RH  019%=      5-min Rain = 0
KGU1 202019Z 21007G12KT 33/07 A3011 RMK A01 T03340069  RH  020%=      5-min Rain = 0
KGU1 202020Z 23004KT 33/07 A3011 RMK A01 T03310072  RH  021%=      5-min Rain = 0
KGU1 202021Z 20006G11KT 33/07 A3011 RMK A01 T03340073  RH  020%=      5-min Rain = 0
KGU1 202022Z 23011KT 34/08 A3011 RMK A01 T03380078  RH  021%=      5-min Rain = 0
KGU1 202023Z 21010KT 34/08 A3011 RMK A01 T03390077  RH  020%=      5-min Rain = 0
KGU1 202024Z 19011KT 34/08 A3011 RMK A01 T03380077  RH  021%=      5-min Rain = 0
KGU1 202025Z 21011KT 34/08 A3011 RMK A01 T03390079  RH  021%=      5-min Rain = 0
KGU1 202026Z 19014KT 34/08 A3011 RMK A01 T03440076  RH  020%=      5-min Rain = 0
KGU1 202027Z 19009G14KT 34/07 A3011 RMK A01 T03410074  RH  020%=      5-min Rain = 0
KGU1 202028Z 24008KT 34/08 A3011 RMK A01 T03420075  RH  020%=      5-min Rain = 0
KGU1 202029Z 24011KT 34/08 A3011 RMK A01 T03430076  RH  020%=      5-min Rain = 0
KGU1 202030Z 24011G18KT 34/08 A3011 RMK A01 T03380075  RH  020%=      5-min Rain = 0
KGU1 202031Z 24013G18KT 34/07 A3011 RMK A01 T03370065  RH  019%=      5-min Rain = 0
KGU1 202032Z 23012KT 34/06 A3011 RMK A01 T03390061  RH  018%=      5-min Rain = 0
KGU1 202033Z 23012KT 34/06 A3011 RMK A01 T03390062  RH  018%=      5-min Rain = 0
KGU1 202034Z 23009KT 34/06 A3011 RMK A01 T03380058  RH  018%=      5-min Rain = 0
KGU1 202035Z 25008KT 34/06 A3011 RMK A01 T03360060  RH  018%=      5-min Rain = 0
KGU1 202036Z 24008KT 34/06 A3011 RMK A01 T03360062  RH  019%=      5-min Rain = 0
KGU1 202037Z 23008KT 34/07 A3011 RMK A01 T03380066  RH  019%=      5-min Rain = 0
KGU1 202038Z 19008KT 34/05 A3011 RMK A01 T03430049  RH  016%=      5-min Rain = 0
KGU1 202039Z 19008G14KT 34/04 A3011 RMK A01 T03430043  RH  016%=      5-min Rain = 0
KGU1 202040Z 19011KT 34/05 A3011 RMK A01 T03410053  RH  017%=      5-min Rain = 0
KGU1 202041Z 18009KT 34/05 A3011 RMK A01 T03380052  RH  017%=      5-min Rain = 0
KGU1 202042Z 18007KT 34/05 A3011 RMK A01 T03350054  RH  018%=      5-min Rain = 0
KGU1 202043Z 18008G15KT 33/06 A3011 RMK A01 T03340060  RH  019%=      5-min Rain = 0
KGU1 202044Z 19014KT 34/07 A3011 RMK A01 T03380065  RH  019%=      5-min Rain = 0
KGU1 202045Z 18008KT 34/07 A3011 RMK A01 T03350065  RH  019%=      5-min Rain = 0
KGU1 202046Z 17007KT 33/07 A3011 RMK A01 T03310065  RH  019%=      5-min Rain = 0
KGU1 202047Z 17006KT 33/06 A3011 RMK A01 T03340063  RH  019%=      5-min Rain = 0
KGU1 202048Z 18008KT 34/06 A3011 RMK A01 T03360059  RH  018%=      5-min Rain = 0
KGU1 202049Z 20009KT 34/06 A3011 RMK A01 T03420055  RH  017%=      5-min Rain = 0
KGU1 202050Z 22007KT 34/06 A3011 RMK A01 T03430057  RH  017%=      5-min Rain = 0
KGU1 202051Z 25007KT 34/06 A3011 RMK A01 T03440060  RH  018%=      5-min Rain = 0
KGU1 202052Z 26008KT 34/06 A3011 RMK A01 T03440056  RH  017%=      5-min Rain = 0
KGU1 202053Z 26007KT 34/06 A3011 RMK A01 T03400057  RH  018%=      5-min Rain = 0
KGU1 202054Z 25005KT 34/06 A3011 RMK A01 T03400056  RH  017%=      5-min Rain = 0
KGU1 202055Z 28006KT 34/05 A3011 RMK A01 T03400052  RH  017%=      5-min Rain = 0
KGU1 202056Z 25001KT 34/05 A3011 RMK A01 T03370047  RH  017%=      5-min Rain = 0
KGU1 202057Z 23008G13KT 34/05 A3011 RMK A01 T03380047  RH  017%=      5-min Rain = 0
KGU1 202058Z 23009G14KT 34/05 A3011 RMK A01 T03410048  RH  016%=      5-min Rain = 0
KGU1 202059Z 28005KT 34/04 A3011 RMK A01 T03380043  RH  016%=      5-min Rain = 0
KGU1 202100Z 34003KT 34/04 A301 RMK A01 T03350041  RH  016%=      5-min Rain = 0
KGU1 202101Z 26005KT 34/04 A301 RMK A01 T03360042  RH  016%=      5-min Rain = 0
KGU1 202102Z 25010KT 34/04 A301 RMK A01 T03390043  RH  016%=      5-min Rain = 0
KGU1 202103Z 22011KT 35/04 A301 RMK A01 T03460042  RH  015%=      5-min Rain = 0
KGU1 202104Z 21010KT 35/04 A3011 RMK A01 T03450041  RH  015%=      5-min Rain = 0
KGU1 202105Z 21009KT 34/04 A301 RMK A01 T03440042  RH  015%=      5-min Rain = 0
KGU1 202106Z 23008G13KT 34/04 A301 RMK A01 T03440040  RH  015%=      5-min Rain = 0
KGU1 202107Z 25010KT 34/04 A301 RMK A01 T03440038  RH  015%=      5-min Rain = 0
KGU1 202108Z 23009KT 34/04 A301 RMK A01 T03440036  RH  015%=      5-min Rain = 0
KGU1 202109Z 22007KT 34/04 A301 RMK A01 T03420037  RH  015%=      5-min Rain = 0
KGU1 202110Z 22007KT 34/04 A301 RMK A01 T03420042  RH  016%=      5-min Rain = 0
KGU1 202111Z 23009KT 34/04 A301 RMK A01 T03430038  RH  015%=      5-min Rain = 0
KGU1 202112Z 21011KT 34/03 A301 RMK A01 T03410030  RH  014%=      5-min Rain = 0
KGU1 202113Z 23011KT 34/03 A301 RMK A01 T03420026  RH  014%=      5-min Rain = 0
KGU1 202114Z 22007KT 34/03 A301 RMK A01 T03410027  RH  014%=      5-min Rain = 0
KGU1 202115Z 22008KT 34/03 A301 RMK A01 T03420029  RH  014%=      5-min Rain = 0
KGU1 202116Z 20007KT 34/03 A301 RMK A01 T03410029  RH  014%=      5-min Rain = 0
KGU1 202117Z 20007KT 34/03 A301 RMK A01 T03400028  RH  014%=      5-min Rain = 0
KGU1 202118Z 20004KT 34/04 A301 RMK A01 T03380043  RH  016%=      5-min Rain = 0
KGU1 202119Z 18004KT 34/05 A301 RMK A01 T03390049  RH  017%=      5-min Rain = 0
KGU1 202120Z 23005G12KT 34/05 A301 RMK A01 T03430053  RH  017%=      5-min Rain = 0
KGU1 202121Z 18008KT 34/05 A301 RMK A01 T03430050  RH  016%=      5-min Rain = 0
KGU1 202122Z 19004KT 34/05 A301 RMK A01 T03380051  RH  017%=      5-min Rain = 0
KGU1 202123Z 26010G15KT 34/06 A301 RMK A01 T03390057  RH  018%=      5-min Rain = 0
KGU1 202124Z 25011KT 34/07 A301 RMK A01 T03420066  RH  019%=      5-min Rain = 0
KGU1 202125Z 29005KT 34/06 A301 RMK A01 T03410064  RH  018%=      5-min Rain = 0
KGU1 202126Z 25012KT 34/07 A301 RMK A01 T03370065  RH  019%=      5-min Rain = 0
KGU1 202127Z 24009G14KT 34/07 A301 RMK A01 T03370065  RH  019%=      5-min Rain = 0
KGU1 202128Z 25013KT 34/07 A301 RMK A01 T03380066  RH  019%=      5-min Rain = 0
KGU1 202129Z 23012KT 34/07 A301 RMK A01 T03360065  RH  019%=      5-min Rain = 0
KGU1 202130Z 27010KT 34/07 A301 RMK A01 T03350065  RH  019%=      5-min Rain = 0
KGU1 202131Z 26010KT 34/07 A301 RMK A01 T03370065  RH  019%=      5-min Rain = 0
KGU1 202132Z 26009KT 34/07 A301 RMK A01 T03390067  RH  019%=      5-min Rain = 0
KGU1 202133Z 24011KT 34/06 A301 RMK A01 T03420060  RH  018%=      5-min Rain = 0
KGU1 202134Z 26008KT 34/06 A301 RMK A01 T03380063  RH  019%=      5-min Rain = 0
KGU1 202135Z 26008KT 34/07 A301 RMK A01 T03380065  RH  019%=      5-min Rain = 0
KGU1 202136Z 27007KT 34/07 A301 RMK A01 T03390065  RH  019%=      5-min Rain = 0
KGU1 202137Z 25007KT 34/06 A301 RMK A01 T03410061  RH  018%=      5-min Rain = 0
KGU1 202138Z 24001KT 34/06 A301 RMK A01 T03420059  RH  018%=      5-min Rain = 0
KGU1 202139Z 26002KT 34/06 A3009 RMK A01 T03430060  RH  018%=      5-min Rain = 0
KGU1 202140Z 26005KT 35/06 A3009 RMK A01 T03460064  RH  018%=      5-min Rain = 0
KGU1 202141Z 27004KT 35/07 A3009 RMK A01 T03480065  RH  018%=      5-min Rain = 0
KGU1 202142Z 27002KT 35/07 A3009 RMK A01 T03470065  RH  018%=      5-min Rain = 0
KGU1 202143Z 31001KT 35/07 A3009 RMK A01 T03480066  RH  018%=      5-min Rain = 0
KGU1 202144Z 23004KT 35/07 A3009 RMK A01 T03490068  RH  018%=      5-min Rain = 0
KGU1 202145Z 25003KT 35/07 A3009 RMK A01 T03470070  RH  019%=      5-min Rain = 0
KGU1 202146Z 26004KT 35/07 A3009 RMK A01 T03470071  RH  019%=      5-min Rain = 0
KGU1 202147Z 27008KT 35/07 A3009 RMK A01 T03460071  RH  019%=      5-min Rain = 0
KGU1 202148Z 29005KT 35/07 A3009 RMK A01 T03460070  RH  019%=      5-min Rain = 0
KGU1 202149Z 28004KT 34/07 A3009 RMK A01 T03440071  RH  019%=      5-min Rain = 0
KGU1 202150Z 23006KT 35/07 A3009 RMK A01 T03450072  RH  019%=      5-min Rain = 0
KGU1 202151Z 20003KT 34/07 A3009 RMK A01 T03440070  RH  019%=      5-min Rain = 0
KGU1 202152Z 25006G12KT 34/07 A3009 RMK A01 T03410071  RH  019%=      5-min Rain = 0
KGU1 202153Z 24008KT 34/07 A3009 RMK A01 T03420071  RH  019%=      5-min Rain = 0
KGU1 202154Z 27009KT 34/07 A3009 RMK A01 T03420072  RH  019%=      5-min Rain = 0
KGU1 202155Z 31006KT 34/07 A3009 RMK A01 T03410071  RH  019%=      5-min Rain = 0
KGU1 202156Z 34005KT 34/07 A3009 RMK A01 T03380074  RH  020%=      5-min Rain = 0
KGU1 202157Z 31008KT 34/07 A3009 RMK A01 T03390072  RH  020%=      5-min Rain = 0
KGU1 202158Z 31008KT 34/07 A3008 RMK A01 T03410070  RH  019%=      5-min Rain = 0
KGU1 202159Z 31006KT 34/07 A3008 RMK A01 T03400073  RH  020%=      5-min Rain = 0
KGU1 202200Z 31006KT 34/07 A3008 RMK A01 T03400072  RH  020%=      5-min Rain = 0
KGU1 202201Z 31008KT 34/07 A3008 RMK A01 T03400071  RH  019%=      5-min Rain = 0
KGU1 202202Z 30009KT 34/07 A3008 RMK A01 T03400072  RH  020%=      5-min Rain = 0
KGU1 202203Z 30007KT 34/07 A3008 RMK A01 T03390072  RH  020%=      5-min Rain = 0
KGU1 202204Z 30004KT 34/07 A3008 RMK A01 T03380071  RH  020%=      5-min Rain = 0
KGU1 202205Z 29005KT 34/07 A3008 RMK A01 T03360071  RH  020%=      5-min Rain = 0
KGU1 202206Z 26005KT 34/07 A3008 RMK A01 T03370071  RH  020%=      5-min Rain = 0
KGU1 202207Z 29004KT 34/07 A3008 RMK A01 T03390071  RH  020%=      5-min Rain = 0
KGU1 202208Z 22007KT 34/07 A3008 RMK A01 T03410073  RH  020%=      5-min Rain = 0
KGU1 202209Z 20009KT 34/07 A3008 RMK A01 T03440073  RH  019%=      5-min Rain = 0
KGU1 202210Z 18011KT 34/07 A3008 RMK A01 T03440072  RH  019%=      5-min Rain = 0
KGU1 202211Z 23009G14KT 35/07 A3008 RMK A01 T03450072  RH  019%=      5-min Rain = 0
KGU1 202212Z 23011KT 35/07 A3008 RMK A01 T03460071  RH  019%=      5-min Rain = 0
KGU1 202213Z 24010G16KT 35/07 A3008 RMK A01 T03470071  RH  019%=      5-min Rain = 0
KGU1 202214Z 22010G15KT 34/07 A3008 RMK A01 T03440069  RH  019%=      5-min Rain = 0
KGU1 202215Z 22011KT 34/07 A3008 RMK A01 T03420070  RH  019%=      5-min Rain = 0
KGU1 202216Z 22013KT 34/07 A3008 RMK A01 T03430068  RH  019%=      5-min Rain = 0
KGU1 202217Z 21011KT 34/07 A3008 RMK A01 T03410066  RH  019%=      5-min Rain = 0
KGU1 202218Z 21010KT 34/07 A3008 RMK A01 T03390066  RH  019%=      5-min Rain = 0
KGU1 202219Z 19006KT 34/07 A3008 RMK A01 T03380066  RH  019%=      5-min Rain = 0
KGU1 202220Z 19007KT 34/07 A3008 RMK A01 T03380066  RH  019%=      5-min Rain = 0
KGU1 202221Z 23010KT 34/07 A3008 RMK A01 T03400067  RH  019%=      5-min Rain = 0
KGU1 202222Z 23012KT 34/07 A3008 RMK A01 T03430066  RH  018%=      5-min Rain = 0
KGU1 202223Z 24010KT 34/06 A3008 RMK A01 T03410062  RH  018%=      5-min Rain = 0
KGU1 202224Z 21009KT 34/07 A3008 RMK A01 T03400065  RH  019%=      5-min Rain = 0
KGU1 202225Z 23009KT 34/07 A3008 RMK A01 T03410066  RH  019%=      5-min Rain = 0
KGU1 202226Z 26005KT 34/07 A3008 RMK A01 T03410067  RH  019%=      5-min Rain = 0
KGU1 202227Z 26007KT 35/06 A3008 RMK A01 T03460064  RH  018%=      5-min Rain = 0
KGU1 202228Z 27006KT 35/06 A3008 RMK A01 T03460059  RH  017%=      5-min Rain = 0
KGU1 202229Z 29006KT 34/06 A3008 RMK A01 T03440057  RH  017%=      5-min Rain = 0
KGU1 202230Z 29006KT 34/05 A3008 RMK A01 T03430050  RH  017%=      5-min Rain = 0
KGU1 202231Z 29006KT 34/05 A3008 RMK A01 T03420053  RH  017%=      5-min Rain = 0
KGU1 202232Z 30007KT 34/06 A3008 RMK A01 T03410057  RH  017%=      5-min Rain = 0
KGU1 202233Z 31004KT 33/06 A3008 RMK A01 T03340061  RH  019%=      5-min Rain = 0
KGU1 202234Z 27006KT 33/06 A3008 RMK A01 T03330063  RH  019%=      5-min Rain = 0
KGU1 202235Z 27009KT 34/07 A3008 RMK A01 T03360067  RH  019%=      5-min Rain = 0
KGU1 202236Z 27007KT 34/07 A3008 RMK A01 T03410069  RH  019%=      5-min Rain = 0
KGU1 202237Z 26008KT 35/07 A3007 RMK A01 T03470066  RH  018%=      5-min Rain = 0
KGU1 202238Z 28006KT 35/06 A3008 RMK A01 T03460064  RH  018%=      5-min Rain = 0
KGU1 202239Z 26004KT 34/07 A3007 RMK A01 T03430065  RH  018%=      5-min Rain = 0
KGU1 202240Z 27005G10KT 34/06 A3007 RMK A01 T03430062  RH  018%=      5-min Rain = 0
KGU1 202241Z 27008G13KT 34/06 A3007 RMK A01 T03430062  RH  018%=      5-min Rain = 0
KGU1 202242Z 24007KT 35/06 A3007 RMK A01 T03450063  RH  018%=      5-min Rain = 0
KGU1 202243Z 24008KT 35/07 A3007 RMK A01 T03470065  RH  018%=      5-min Rain = 0
KGU1 202244Z 26007KT 35/06 A3007 RMK A01 T03460064  RH  018%=      5-min Rain = 0
KGU1 202245Z 26005KT 35/07 A3007 RMK A01 T03460065  RH  018%=      5-min Rain = 0
KGU1 202246Z 20006KT 35/06 A3007 RMK A01 T03470062  RH  018%=      5-min Rain = 0
KGU1 202247Z 20005KT 34/06 A3007 RMK A01 T03440060  RH  018%=      5-min Rain = 0
KGU1 202248Z 21008KT 35/06 A3007 RMK A01 T03450064  RH  018%=      5-min Rain = 0
KGU1 202249Z 20010KT 35/07 A3007 RMK A01 T03460065  RH  018%=      5-min Rain = 0
KGU1 202250Z 20009KT 34/06 A3007 RMK A01 T03440064  RH  018%=      5-min Rain = 0
KGU1 202251Z 22005KT 35/07 A3007 RMK A01 T03450066  RH  018%=      5-min Rain = 0
KGU1 202252Z 22008KT 35/07 A3007 RMK A01 T03450066  RH  018%=      5-min Rain = 0
KGU1 202253Z 21004KT 34/06 A3007 RMK A01 T03430064  RH  018%=      5-min Rain = 0
KGU1 202254Z 23004KT 34/07 A3007 RMK A01 T03430066  RH  018%=      5-min Rain = 0
KGU1 202255Z 23006KT 35/07 A3007 RMK A01 T03460066  RH  018%=      5-min Rain = 0
KGU1 202256Z 26011KT 35/07 A3007 RMK A01 T03490065  RH  018%=      5-min Rain = 0
KGU1 202257Z 27008KT 35/06 A3007 RMK A01 T03490064  RH  018%=      5-min Rain = 0
KGU1 202258Z 27005KT 35/06 A3007 RMK A01 T03470064  RH  018%=      5-min Rain = 0
KGU1 202259Z 26010KT 35/06 A3007 RMK A01 T03470064  RH  018%=      5-min Rain = 0
KGU1 202300Z 25011KT 35/06 A3007 RMK A01 T03480063  RH  018%=      5-min Rain = 0
KGU1 202301Z 26007KT 35/06 A3007 RMK A01 T03460064  RH  018%=      5-min Rain = 0
KGU1 202302Z 26004KT 35/06 A3007 RMK A01 T03470063  RH  018%=      5-min Rain = 0
KGU1 202303Z 25007KT 35/06 A3007 RMK A01 T03460063  RH  018%=      5-min Rain = 0
KGU1 202304Z 28007KT 35/06 A3007 RMK A01 T03460064  RH  018%=      5-min Rain = 0
KGU1 202305Z 26006KT 35/06 A3007 RMK A01 T03470063  RH  018%=      5-min Rain = 0
KGU1 202306Z 29002KT 35/06 A3007 RMK A01 T03460062  RH  018%=      5-min Rain = 0
KGU1 202307Z 32001KT 35/06 A3006 RMK A01 T03460062  RH  018%=      5-min Rain = 0
KGU1 202308Z 35002KT 35/06 A3006 RMK A01 T03480063  RH  018%=      5-min Rain = 0
KGU1 202309Z 21002KT 35/06 A3006 RMK A01 T03510063  RH  017%=      5-min Rain = 0
KGU1 202310Z 22004G10KT 35/06 A3006 RMK A01 T03510061  RH  017%=      5-min Rain = 0
KGU1 202311Z 22006KT 35/06 A3006 RMK A01 T03490060  RH  017%=      5-min Rain = 0
KGU1 202312Z 22007G14KT 35/06 A3006 RMK A01 T03480061  RH  017%=      5-min Rain = 0
KGU1 202313Z 22012KT 35/06 A3006 RMK A01 T03480058  RH  017%=      5-min Rain = 0
KGU1 202314Z 23010KT 35/06 A3006 RMK A01 T03450058  RH  017%=      5-min Rain = 0
KGU1 202315Z 25010KT 35/06 A3006 RMK A01 T03450059  RH  017%=      5-min Rain = 0
KGU1 202316Z 24012KT 35/06 A3006 RMK A01 T03450058  RH  017%=      5-min Rain = 0
KGU1 202317Z 23009KT 34/06 A3006 RMK A01 T03420058  RH  018%=      5-min Rain = 0
KGU1 202318Z 25009KT 34/06 A3006 RMK A01 T03430059  RH  018%=      5-min Rain = 0
KGU1 202319Z 26008KT 35/06 A3006 RMK A01 T03450058  RH  017%=      5-min Rain = 0
KGU1 202320Z 27005KT 34/06 A3006 RMK A01 T03430057  RH  017%=      5-min Rain = 0
KGU1 202321Z 25006G11KT 34/06 A3006 RMK A01 T03430059  RH  018%=      5-min Rain = 0
KGU1 202322Z 23008KT 35/06 A3006 RMK A01 T03450060  RH  017%=      5-min Rain = 0
KGU1 202323Z 22009KT 35/06 A3006 RMK A01 T03460058  RH  017%=      5-min Rain = 0
KGU1 202324Z 21008KT 35/06 A3006 RMK A01 T03450059  RH  017%=      5-min Rain = 0
KGU1 202325Z 19006KT 34/06 A3006 RMK A01 T03440058  RH  017%=      5-min Rain = 0
KGU1 202326Z 21009KT 34/06 A3006 RMK A01 T03430057  RH  017%=      5-min Rain = 0
KGU1 202327Z 21007KT 34/06 A3006 RMK A01 T03430057  RH  017%=      5-min Rain = 0
KGU1 202328Z 26007KT 34/06 A3006 RMK A01 T03430058  RH  017%=      5-min Rain = 0
KGU1 202329Z 22009KT 35/06 A3006 RMK A01 T03450058  RH  017%=      5-min Rain = 0
KGU1 202330Z 21007KT 34/06 A3006 RMK A01 T03430058  RH  017%=      5-min Rain = 0
KGU1 202331Z 20009KT 34/06 A3006 RMK A01 T03420058  RH  018%=      5-min Rain = 0
KGU1 202332Z 20007KT 34/06 A3006 RMK A01 T03430058  RH  017%=      5-min Rain = 0
KGU1 202333Z 20007KT 34/06 A3006 RMK A01 T03430057  RH  017%=      5-min Rain = 0
KGU1 202334Z 20005KT 34/06 A3006 RMK A01 T03400056  RH  017%=      5-min Rain = 0
KGU1 202335Z 18008KT 34/06 A3006 RMK A01 T03380056  RH  018%=      5-min Rain = 0
KGU1 202336Z 18007KT 34/06 A3006 RMK A01 T03380057  RH  018%=      5-min Rain = 0
KGU1 202337Z 17006KT 34/06 A3006 RMK A01 T03390057  RH  018%=      5-min Rain = 0
KGU1 202338Z 18005KT 34/06 A3006 RMK A01 T03380057  RH  018%=      5-min Rain = 0
KGU1 202339Z 14001G6KT 34/06 A3006 RMK A01 T03380056  RH  018%=      5-min Rain = 0
KGU1 202340Z 13004KT 34/06 A3006 RMK A01 T03390057  RH  018%=      5-min Rain = 0
KGU1 202341Z 15004KT 34/06 A3006 RMK A01 T03390057  RH  018%=      5-min Rain = 0
KGU1 202342Z 19002KT 34/06 A3006 RMK A01 T03390057  RH  018%=      5-min Rain = 0
KGU1 202343Z 17001KT 34/06 A3006 RMK A01 T03400058  RH  018%=      5-min Rain = 0
KGU1 202344Z 18002KT 34/06 A3006 RMK A01 T03430058  RH  017%=      5-min Rain = 0
KGU1 202345Z 27006KT 35/06 A3006 RMK A01 T03450057  RH  017%=      5-min Rain = 0
KGU1 202346Z 26006KT 35/06 A3006 RMK A01 T03450057  RH  017%=      5-min Rain = 0
KGU1 202347Z 25009KT 35/05 A3006 RMK A01 T03460053  RH  017%=      5-min Rain = 0
KGU1 202348Z 25009KT 34/05 A3006 RMK A01 T03440053  RH  017%=      5-min Rain = 0
KGU1 202349Z 25009KT 34/05 A3006 RMK A01 T03430052  RH  017%=      5-min Rain = 0
KGU1 202350Z 24007KT 34/05 A3006 RMK A01 T03420052  RH  017%=      5-min Rain = 0
KGU1 202351Z 23009KT 34/05 A3006 RMK A01 T03420054  RH  017%=      5-min Rain = 0
KGU1 202352Z 22007KT 34/05 A3006 RMK A01 T03420053  RH  017%=      5-min Rain = 0
KGU1 202353Z 22005KT 34/05 A3006 RMK A01 T03410054  RH  017%=      5-min Rain = 0
KGU1 202354Z 24005KT 34/05 A3006 RMK A01 T03410054  RH  017%=      5-min Rain = 0
KGU1 202355Z 23006KT 34/06 A3006 RMK A01 T03440057  RH  017%=      5-min Rain = 0
KGU1 202356Z 24007KT 35/05 A3006 RMK A01 T03460054  RH  017%=      5-min Rain = 0
KGU1 202357Z 25008KT 34/05 A3006 RMK A01 T03440053  RH  017%=      5-min Rain = 0
KGU1 202358Z 24008KT 34/05 A3006 RMK A01 T03420054  RH  017%=      5-min Rain = 0
KGU1 202359Z 25008G13KT 34/06 A3006 RMK A01 T03430055  RH  017%=      5-min Rain = 0
KGU1 210000Z 24011KT 34/05 A3006 RMK A01 T03430053  RH  017%=      5-min Rain = 0
KGU1 210001Z 23009KT 34/05 A3006 RMK A01 T03420053  RH  017%=      5-min Rain = 0
KGU1 210002Z 24009KT 34/05 A3006 RMK A01 T03410054  RH  017%=      5-min Rain = 0
KGU1 210003Z 24009KT 34/05 A3006 RMK A01 T03410054  RH  017%=      5-min Rain = 0
KGU1 210004Z 23009KT 34/06 A3006 RMK A01 T03390055  RH  017%=      5-min Rain = 0
KGU1 210005Z 25006KT 34/06 A3006 RMK A01 T03360055  RH  018%=      5-min Rain = 0
KGU1 210006Z 25005KT 33/06 A3006 RMK A01 T03330055  RH  018%=      5-min Rain = 0
KGU1 210007Z 23005KT 33/06 A3006 RMK A01 T03310057  RH  019%=      5-min Rain = 0
KGU1 210008Z 22001KT 33/06 A3006 RMK A01 T03290058  RH  019%=      5-min Rain = 0
KGU1 210009Z 19001KT 33/06 A3006 RMK A01 T03280059  RH  019%=      5-min Rain = 0
KGU1 210010Z 19002KT 33/06 A3006 RMK A01 T03270059  RH  019%=      5-min Rain = 0
KGU1 210011Z 20007G13KT 33/06 A3006 RMK A01 T03270060  RH  019%=      5-min Rain = 0
KGU1 210012Z 21009KT 33/06 A3006 RMK A01 T03280064  RH  020%=      5-min Rain = 0
KGU1 210013Z 20009KT 33/07 A3006 RMK A01 T03290066  RH  020%=      5-min Rain = 0
KGU1 210014Z 22010KT 33/07 A3006 RMK A01 T03320066  RH  020%=      5-min Rain = 0
KGU1 210015Z 23010KT 33/07 A3006 RMK A01 T03340066  RH  019%=      5-min Rain = 0
KGU1 210016Z 25009KT 33/07 A3006 RMK A01 T03330066  RH  019%=      5-min Rain = 0
KGU1 210017Z 24009KT 33/07 A3006 RMK A01 T03300065  RH  020%=      5-min Rain = 0
KGU1 210018Z 25008KT 33/07 A3006 RMK A01 T03270065  RH  020%=      5-min Rain = 0
KGU1 210019Z 25005KT 33/07 A3006 RMK A01 T03250065  RH  020%=      5-min Rain = 0
KGU1 210020Z 22003KT 32/07 A3006 RMK A01 T03240065  RH  020%=      5-min Rain = 0
KGU1 210021Z 22003KT 32/07 A3006 RMK A01 T03240065  RH  020%=      5-min Rain = 0
KGU1 210022Z 23003KT 32/07 A3006 RMK A01 T03240065  RH  020%=      5-min Rain = 0
KGU1 210023Z 21003KT 32/07 A3006 RMK A01 T03240066  RH  021%=      5-min Rain = 0
KGU1 210024Z 21004KT 32/07 A3006 RMK A01 T03240066  RH  021%=      5-min Rain = 0
KGU1 210025Z 21007KT 32/07 A3006 RMK A01 T03240066  RH  021%=      5-min Rain = 0
KGU1 210026Z 24009KT 32/07 A3006 RMK A01 T03240065  RH  020%=      5-min Rain = 0
KGU1 210027Z 25009KT 32/06 A3006 RMK A01 T03240064  RH  020%=      5-min Rain = 0
KGU1 210028Z 26010G15KT 32/06 A3006 RMK A01 T03240064  RH  020%=      5-min Rain = 0
KGU1 210029Z 26009KT 32/06 A3006 RMK A01 T03240064  RH  020%=      5-min Rain = 0
KGU1 210030Z 27006KT 32/06 A3006 RMK A01 T03240064  RH  020%=      5-min Rain = 0
KGU1 210031Z 27006KT 32/06 A3006 RMK A01 T03240064  RH  020%=      5-min Rain = 0
KGU1 210032Z 29006KT 32/06 A3006 RMK A01 T03240064  RH  020%=      5-min Rain = 0
KGU1 210033Z 28004KT 32/06 A3006 RMK A01 T03240064  RH  020%=      5-min Rain = 0
KGU1 210034Z 26005KT 32/07 A3006 RMK A01 T03240065  RH  020%=      5-min Rain = 0
KGU1 210035Z 24004KT 32/07 A3006 RMK A01 T03240065  RH  020%=      5-min Rain = 0
KGU1 210036Z 25005KT 32/06 A3006 RMK A01 T03240064  RH  020%=      5-min Rain = 0
KGU1 210037Z 24003KT 32/06 A3006 RMK A01 T03230064  RH  020%=      5-min Rain = 0
KGU1 210038Z 23005KT 32/07 A3006 RMK A01 T03230065  RH  020%=      5-min Rain = 0
KGU1 210039Z 24006KT 32/06 A3006 RMK A01 T03230064  RH  020%=      5-min Rain = 0
KGU1 210040Z 24006KT 32/06 A3006 RMK A01 T03220063  RH  020%=      5-min Rain = 0
KGU1 210041Z 24005KT 32/06 A3006 RMK A01 T03220063  RH  020%=      5-min Rain = 0
KGU1 210042Z 23004KT 32/06 A3006 RMK A01 T03220064  RH  020%=      5-min Rain = 0
KGU1 210043Z 23006KT 32/06 A3006 RMK A01 T03220064  RH  020%=      5-min Rain = 0
KGU1 210044Z 24006KT 32/06 A3006 RMK A01 T03230063  RH  020%=      5-min Rain = 0
KGU1 210045Z 23006KT 32/06 A3006 RMK A01 T03240063  RH  020%=      5-min Rain = 0
KGU1 210046Z 23005KT 33/06 A3006 RMK A01 T03260063  RH  020%=      5-min Rain = 0
KGU1 210047Z 22004KT 33/06 A3006 RMK A01 T03280063  RH  020%=      5-min Rain = 0
KGU1 210048Z 23003KT 33/06 A3006 RMK A01 T03290063  RH  020%=      5-min Rain = 0
KGU1 210049Z 25004KT 33/06 A3006 RMK A01 T03310062  RH  019%=      5-min Rain = 0
KGU1 210050Z 26005KT 33/06 A3006 RMK A01 T03300062  RH  019%=      5-min Rain = 0
KGU1 210051Z 26005KT 33/06 A3006 RMK A01 T03280062  RH  019%=      5-min Rain = 0
KGU1 210052Z 26005KT 33/06 A3006 RMK A01 T03260061  RH  020%=      5-min Rain = 0
KGU1 210053Z 25004KT 33/06 A3006 RMK A01 T03250062  RH  020%=      5-min Rain = 0
KGU1 210054Z 24004KT 33/06 A3006 RMK A01 T03250062  RH  020%=      5-min Rain = 0
KGU1 210055Z 25005KT 33/06 A3006 RMK A01 T03250062  RH  020%=      5-min Rain = 0
KGU1 210056Z 24005KT 33/06 A3006 RMK A01 T03250062  RH  020%=      5-min Rain = 0
KGU1 210057Z 25004KT 33/06 A3006 RMK A01 T03250063  RH  020%=      5-min Rain = 0
KGU1 210058Z 23006KT 33/06 A3006 RMK A01 T03250062  RH  020%=      5-min Rain = 0
KGU1 210059Z 22004KT 32/06 A3006 RMK A01 T03240063  RH  020%=      5-min Rain = 0
KGU1 210100Z 20006KT 32/06 A3006 RMK A01 T03240062  RH  020%=      5-min Rain = 0
KGU1 210101Z 21007KT 32/06 A3006 RMK A01 T03240061  RH  020%=      5-min Rain = 0
KGU1 210102Z 21005KT 32/06 A3006 RMK A01 T03230061  RH  020%=      5-min Rain = 0
KGU1 210103Z 19005KT 32/06 A3006 RMK A01 T03230062  RH  020%=      5-min Rain = 0
KGU1 210104Z 21005KT 32/06 A3006 RMK A01 T03230061  RH  020%=      5-min Rain = 0
KGU1 210105Z 19007KT 32/06 A3006 RMK A01 T03240061  RH  020%=      5-min Rain = 0
KGU1 210106Z 19006KT 33/06 A3006 RMK A01 T03250061  RH  020%=      5-min Rain = 0
KGU1 210107Z 20006KT 33/06 A3006 RMK A01 T03250060  RH  020%=      5-min Rain = 0
KGU1 210108Z 20005KT 33/06 A3006 RMK A01 T03260061  RH  020%=      5-min Rain = 0
KGU1 210109Z 20004KT 33/06 A3006 RMK A01 T03260061  RH  020%=      5-min Rain = 0
KGU1 210110Z 21004KT 33/06 A3006 RMK A01 T03270061  RH  020%=      5-min Rain = 0
KGU1 210111Z 22005KT 33/06 A3006 RMK A01 T03270061  RH  020%=      5-min Rain = 0
KGU1 210112Z 21006KT 33/06 A3006 RMK A01 T03270061  RH  020%=      5-min Rain = 0
KGU1 210113Z 22007KT 33/06 A3006 RMK A01 T03260061  RH  020%=      5-min Rain = 0
KGU1 210114Z 21009KT 33/06 A3006 RMK A01 T03250060  RH  020%=      5-min Rain = 0
KGU1 210115Z 21010KT 33/06 A3006 RMK A01 T03250060  RH  020%=      5-min Rain = 0
KGU1 210116Z 21010KT 32/06 A3006 RMK A01 T03240059  RH  020%=      5-min Rain = 0
KGU1 210117Z 21009KT 32/06 A3006 RMK A01 T03240059  RH  020%=      5-min Rain = 0
KGU1 210118Z 20008KT 32/06 A3006 RMK A01 T03230059  RH  020%=      5-min Rain = 0
KGU1 210119Z 19008KT 32/06 A3006 RMK A01 T03230060  RH  020%=      5-min Rain = 0
KGU1 210120Z 19007KT 32/06 A3006 RMK A01 T03230060  RH  020%=      5-min Rain = 0
KGU1 210121Z 18009KT 32/06 A3006 RMK A01 T03220060  RH  020%=      5-min Rain = 0
KGU1 210122Z 19009KT 32/06 A3006 RMK A01 T03210060  RH  020%=      5-min Rain = 0
KGU1 210123Z 19007KT 32/06 A3006 RMK A01 T03210059  RH  020%=      5-min Rain = 0
KGU1 210124Z 19007KT 32/06 A3006 RMK A01 T03200059  RH  020%=      5-min Rain = 0
KGU1 210125Z 19007KT 32/06 A3006 RMK A01 T03200059  RH  020%=      5-min Rain = 0
KGU1 210126Z 18010KT 32/06 A3006 RMK A01 T03190060  RH  020%=      5-min Rain = 0
KGU1 210127Z 19008KT 32/06 A3006 RMK A01 T03180060  RH  020%=      5-min Rain = 0
KGU1 210128Z 19008KT 32/06 A3006 RMK A01 T03180060  RH  020%=      5-min Rain = 0
KGU1 210129Z 19009KT 32/06 A3006 RMK A01 T03170060  RH  020%=      5-min Rain = 0
KGU1 210130Z 20008KT 32/06 A3007 RMK A01 T03170059  RH  020%=      5-min Rain = 0
KGU1 210131Z 20006KT 32/06 A3007 RMK A01 T03170059  RH  020%=      5-min Rain = 0
KGU1 210132Z 20007KT 32/06 A3007 RMK A01 T03160059  RH  020%=      5-min Rain = 0
KGU1 210133Z 20006KT 32/06 A3007 RMK A01 T03160059  RH  020%=      5-min Rain = 0
KGU1 210134Z 19008KT 32/06 A3007 RMK A01 T03150058  RH  020%=      5-min Rain = 0
KGU1 210135Z 18006KT 32/06 A3007 RMK A01 T03150058  RH  020%=      5-min Rain = 0
KGU1 210136Z 20008KT 32/06 A3007 RMK A01 T03150058  RH  020%=      5-min Rain = 0
KGU1 210137Z 20009KT 32/06 A3007 RMK A01 T03150060  RH  021%=      5-min Rain = 0
KGU1 210138Z 19011KT 32/06 A3007 RMK A01 T03150063  RH  021%=      5-min Rain = 0
KGU1 210139Z 19008KT 31/06 A3007 RMK A01 T03140063  RH  021%=      5-min Rain = 0
KGU1 210140Z 19012KT 31/06 A3007 RMK A01 T03130064  RH  021%=      5-min Rain = 0
KGU1 210141Z 20010KT 31/06 A3007 RMK A01 T03130064  RH  022%=      5-min Rain = 0
KGU1 210142Z 19008KT 31/06 A3007 RMK A01 T03130064  RH  022%=      5-min Rain = 0
KGU1 210143Z 19010KT 31/06 A3007 RMK A01 T03120064  RH  022%=      5-min Rain = 0
KGU1 210144Z 20008KT 31/06 A3007 RMK A01 T03120064  RH  022%=      5-min Rain = 0
KGU1 210145Z 19010KT 31/06 A3007 RMK A01 T03120064  RH  022%=      5-min Rain = 0
KGU1 210146Z 20008KT 31/06 A3007 RMK A01 T03110064  RH  022%=      5-min Rain = 0
KGU1 210147Z 21008KT 31/07 A3007 RMK A01 T03110065  RH  022%=      5-min Rain = 0
KGU1 210148Z 21009KT 31/07 A3007 RMK A01 T03100066  RH  022%=      5-min Rain = 0
KGU1 210149Z 21006KT 31/07 A3007 RMK A01 T03100066  RH  022%=      5-min Rain = 0
KGU1 210150Z 21007KT 31/07 A3007 RMK A01 T03090067  RH  022%=      5-min Rain = 0
KGU1 210151Z 21007KT 31/07 A3007 RMK A01 T03090067  RH  023%=      5-min Rain = 0
KGU1 210152Z 21007KT 31/07 A3007 RMK A01 T03090068  RH  023%=      5-min Rain = 0
KGU1 210153Z 20005KT 31/07 A3007 RMK A01 T03080068  RH  023%=      5-min Rain = 0
KGU1 210154Z 21008KT 31/07 A3007 RMK A01 T03070069  RH  023%=      5-min Rain = 0
KGU1 210155Z 21007KT 31/07 A3007 RMK A01 T03070069  RH  023%=      5-min Rain = 0
KGU1 210156Z 20009KT 31/07 A3007 RMK A01 T03070069  RH  023%=      5-min Rain = 0
KGU1 210157Z 21007KT 31/07 A3007 RMK A01 T03070071  RH  023%=      5-min Rain = 0
KGU1 210158Z 21010KT 31/07 A3007 RMK A01 T03070072  RH  024%=      5-min Rain = 0
KGU1 210159Z 21008KT 31/07 A3007 RMK A01 T03060073  RH  024%=      5-min Rain = 0
KGU1 210200Z 21007KT 31/07 A3007 RMK A01 T03060073  RH  024%=      5-min Rain = 0
KGU1 210201Z 21007KT 31/07 A3007 RMK A01 T03060073  RH  024%=      5-min Rain = 0
KGU1 210202Z 21008KT 31/07 A3007 RMK A01 T03050074  RH  024%=      5-min Rain = 0
KGU1 210203Z 21008KT 31/07 A3007 RMK A01 T03050074  RH  024%=      5-min Rain = 0
KGU1 210204Z 22007KT 31/08 A3007 RMK A01 T03050075  RH  024%=      5-min Rain = 0
KGU1 210205Z 22006KT 31/07 A3007 RMK A01 T03050074  RH  024%=      5-min Rain = 0
KGU1 210206Z 23005KT 30/07 A3007 RMK A01 T03040074  RH  024%=      5-min Rain = 0
KGU1 210207Z 23006KT 30/07 A3007 RMK A01 T03040074  RH  024%=      5-min Rain = 0
KGU1 210208Z 25006KT 30/07 A3007 RMK A01 T03030073  RH  024%=      5-min Rain = 0
KGU1 210209Z 25006KT 30/07 A3007 RMK A01 T03020073  RH  024%=      5-min Rain = 0
KGU1 210210Z 24006KT 30/07 A3007 RMK A01 T03020074  RH  025%=      5-min Rain = 0
KGU1 210211Z 24008KT 30/07 A3007 RMK A01 T03010074  RH  025%=      5-min Rain = 0
KGU1 210212Z 24007KT 30/08 A3007 RMK A01 T03020075  RH  025%=      5-min Rain = 0
KGU1 210213Z 23007KT 30/08 A3007 RMK A01 T03020076  RH  025%=      5-min Rain = 0
KGU1 210214Z 23007KT 30/08 A3007 RMK A01 T03020077  RH  025%=      5-min Rain = 0
KGU1 210215Z 23005KT 30/08 A3007 RMK A01 T03020077  RH  025%=      5-min Rain = 0
KGU1 210216Z 23008KT 30/08 A3007 RMK A01 T03020078  RH  025%=      5-min Rain = 0
KGU1 210217Z 23006KT 30/08 A3007 RMK A01 T03010078  RH  025%=      5-min Rain = 0
KGU1 210218Z 25005KT 30/08 A3008 RMK A01 T03010077  RH  025%=      5-min Rain = 0
KGU1 210219Z 24005KT 30/08 A3008 RMK A01 T03000077  RH  025%=      5-min Rain = 0
KGU1 210220Z 24007KT 30/08 A3008 RMK A01 T02990077  RH  026%=      5-min Rain = 0
KGU1 210221Z 23008KT 30/08 A3008 RMK A01 T02990078  RH  026%=      5-min Rain = 0
KGU1 210222Z 22007KT 30/08 A3008 RMK A01 T02990078  RH  026%=      5-min Rain = 0
KGU1 210223Z 24007KT 30/08 A3008 RMK A01 T03000078  RH  026%=      5-min Rain = 0
KGU1 210224Z 24006KT 30/08 A3008 RMK A01 T03000078  RH  026%=      5-min Rain = 0
KGU1 210225Z 24007KT 30/08 A3008 RMK A01 T03000078  RH  026%=      5-min Rain = 0
KGU1 210226Z 22007KT 30/08 A3008 RMK A01 T03000078  RH  026%=      5-min Rain = 0
KGU1 210227Z 22006KT 30/08 A3008 RMK A01 T03000078  RH  026%=      5-min Rain = 0
KGU1 210228Z 24006KT 30/08 A3008 RMK A01 T02990078  RH  026%=      5-min Rain = 0
KGU1 210229Z 25005KT 30/08 A3008 RMK A01 T02980078  RH  026%=      5-min Rain = 0
KGU1 210230Z 25005KT 30/08 A3008 RMK A01 T02980078  RH  026%=      5-min Rain = 0
KGU1 210231Z 25005KT 30/08 A3008 RMK A01 T02970078  RH  026%=      5-min Rain = 0
KGU1 210232Z 25005KT 30/08 A3008 RMK A01 T02960079  RH  026%=      5-min Rain = 0
KGU1 210233Z 25006KT 30/08 A3008 RMK A01 T02960079  RH  026%=      5-min Rain = 0
KGU1 210234Z 25006KT 30/08 A3008 RMK A01 T02960078  RH  026%=      5-min Rain = 0
KGU1 210235Z 25005KT 30/08 A3008 RMK A01 T02960078  RH  026%=      5-min Rain = 0
KGU1 210236Z 26005KT 30/08 A3008 RMK A01 T02950079  RH  026%=      5-min Rain = 0
KGU1 210237Z 26006KT 29/08 A3008 RMK A01 T02940078  RH  027%=      5-min Rain = 0
KGU1 210238Z 27006KT 29/08 A3008 RMK A01 T02930078  RH  027%=      5-min Rain = 0
KGU1 210239Z 27005KT 29/08 A3008 RMK A01 T02910078  RH  027%=      5-min Rain = 0
KGU1 210240Z 27006KT 29/08 A3008 RMK A01 T02900078  RH  027%=      5-min Rain = 0
KGU1 210241Z 27006KT 29/08 A3008 RMK A01 T02880078  RH  028%=      5-min Rain = 0
KGU1 210242Z 26007KT 29/08 A3008 RMK A01 T02860077  RH  028%=      5-min Rain = 0
KGU1 210243Z 27006KT 29/08 A3008 RMK A01 T02860077  RH  028%=      5-min Rain = 0
KGU1 210244Z 27007KT 29/08 A3008 RMK A01 T02850077  RH  028%=      5-min Rain = 0
KGU1 210245Z 25006KT 29/08 A3008 RMK A01 T02860077  RH  028%=      5-min Rain = 0
KGU1 210246Z 26005KT 29/08 A3008 RMK A01 T02870077  RH  027%=      5-min Rain = 0
KGU1 210247Z 26006KT 29/08 A3008 RMK A01 T02880077  RH  027%=      5-min Rain = 0
KGU1 210248Z 27007KT 29/08 A3008 RMK A01 T02870077  RH  027%=      5-min Rain = 0
KGU1 210249Z 27006KT 29/08 A3008 RMK A01 T02860077  RH  028%=      5-min Rain = 0
KGU1 210250Z 27006KT 29/08 A3008 RMK A01 T02850077  RH  028%=      5-min Rain = 0
KGU1 210251Z 27006KT 28/08 A3008 RMK A01 T02840077  RH  028%=      5-min Rain = 0
KGU1 210252Z 27006KT 28/08 A3008 RMK A01 T02830076  RH  028%=      5-min Rain = 0
KGU1 210253Z 26007KT 28/08 A3008 RMK A01 T02830077  RH  028%=      5-min Rain = 0
KGU1 210254Z 26006KT 28/08 A3009 RMK A01 T02840077  RH  028%=      5-min Rain = 0
KGU1 210255Z 26006KT 28/08 A3009 RMK A01 T02840077  RH  028%=      5-min Rain = 0
KGU1 210256Z 26005KT 28/08 A3009 RMK A01 T02840076  RH  028%=      5-min Rain = 0
KGU1 210257Z 26006KT 28/08 A3009 RMK A01 T02840076  RH  028%=      5-min Rain = 0
KGU1 210258Z 26005KT 28/08 A3009 RMK A01 T02840076  RH  028%=      5-min Rain = 0
KGU1 210259Z 27006KT 29/08 A3009 RMK A01 T02850077  RH  028%=      5-min Rain = 0
KGU1 210300Z 26006KT 28/08 A3009 RMK A01 T02840077  RH  028%=      5-min Rain = 0
KGU1 210301Z 26006KT 28/08 A3009 RMK A01 T02830077  RH  028%=      5-min Rain = 0
KGU1 210302Z 26006KT 28/08 A3009 RMK A01 T02830076  RH  028%=      5-min Rain = 0
KGU1 210303Z 25005KT 29/08 A3009 RMK A01 T02850077  RH  028%=      5-min Rain = 0
KGU1 210304Z 26005KT 29/08 A3009 RMK A01 T02860077  RH  028%=      5-min Rain = 0
KGU1 210305Z 25006KT 29/08 A3009 RMK A01 T02860077  RH  027%=      5-min Rain = 0
KGU1 210306Z 25005KT 29/08 A3009 RMK A01 T02880077  RH  027%=      5-min Rain = 0
KGU1 210307Z 26005KT 29/08 A3009 RMK A01 T02880078  RH  027%=      5-min Rain = 0
KGU1 210308Z 25007KT 29/08 A3009 RMK A01 T02880078  RH  027%=      5-min Rain = 0
KGU1 210309Z 24007KT 29/08 A3009 RMK A01 T02900077  RH  027%=      5-min Rain = 0
KGU1 210310Z 25008KT 29/08 A3009 RMK A01 T02910078  RH  027%=      5-min Rain = 0
KGU1 210311Z 26007KT 29/08 A3009 RMK A01 T02920078  RH  027%=      5-min Rain = 0
KGU1 210312Z 27006KT 29/08 A3009 RMK A01 T02910078  RH  027%=      5-min Rain = 0
KGU1 210313Z 26007KT 29/08 A3009 RMK A01 T02890078  RH  027%=      5-min Rain = 0
KGU1 210314Z 26007KT 29/08 A3009 RMK A01 T02880078  RH  027%=      5-min Rain = 0
KGU1 210315Z 25007KT 29/08 A3009 RMK A01 T02870078  RH  027%=      5-min Rain = 0
KGU1 210316Z 26006KT 29/08 A3009 RMK A01 T02880078  RH  027%=      5-min Rain = 0
KGU1 210317Z 25007KT 29/08 A3009 RMK A01 T02890078  RH  027%=      5-min Rain = 0
KGU1 210318Z 25006KT 29/08 A301 RMK A01 T02890078  RH  027%=      5-min Rain = 0
KGU1 210319Z 26005KT 29/08 A301 RMK A01 T02890078  RH  027%=      5-min Rain = 0
KGU1 210320Z 26006KT 29/08 A301 RMK A01 T02880078  RH  027%=      5-min Rain = 0
KGU1 210321Z 26006KT 29/08 A301 RMK A01 T02880078  RH  027%=      5-min Rain = 0
KGU1 210322Z 25005KT 29/08 A301 RMK A01 T02880078  RH  027%=      5-min Rain = 0
KGU1 210323Z 27006KT 29/08 A301 RMK A01 T02870078  RH  028%=      5-min Rain = 0
KGU1 210324Z 27006KT 29/08 A301 RMK A01 T02860078  RH  028%=      5-min Rain = 0
KGU1 210325Z 25005KT 28/08 A301 RMK A01 T02840078  RH  028%=      5-min Rain = 0
KGU1 210326Z 25007KT 28/08 A301 RMK A01 T02830078  RH  028%=      5-min Rain = 0
KGU1 210327Z 24007KT 28/08 A301 RMK A01 T02830077  RH  028%=      5-min Rain = 0
KGU1 210328Z 24007KT 28/08 A301 RMK A01 T02840077  RH  028%=      5-min Rain = 0
KGU1 210329Z 25008KT 29/08 A301 RMK A01 T02870077  RH  028%=      5-min Rain = 0
KGU1 210330Z 24007KT 29/08 A301 RMK A01 T02880077  RH  027%=      5-min Rain = 0
KGU1 210331Z 25007KT 29/08 A301 RMK A01 T02890076  RH  027%=      5-min Rain = 0
KGU1 210332Z 26004KT 29/08 A301 RMK A01 T02890077  RH  027%=      5-min Rain = 0
KGU1 210333Z 25005KT 29/08 A301 RMK A01 T02880077  RH  027%=      5-min Rain = 0
KGU1 210334Z 25007KT 29/08 A301 RMK A01 T02870076  RH  027%=      5-min Rain = 0
KGU1 210335Z 26007KT 29/08 A301 RMK A01 T02870076  RH  027%=      5-min Rain = 0
KGU1 210336Z 26007KT 29/08 A301 RMK A01 T02870076  RH  027%=      5-min Rain = 0
KGU1 210337Z 26006KT 29/08 A301 RMK A01 T02860076  RH  027%=      5-min Rain = 0
KGU1 210338Z 26008KT 29/08 A301 RMK A01 T02850076  RH  028%=      5-min Rain = 0
KGU1 210339Z 26008KT 29/08 A301 RMK A01 T02850076  RH  028%=      5-min Rain = 0
KGU1 210340Z 26008KT 29/08 A301 RMK A01 T02860077  RH  028%=      5-min Rain = 0
KGU1 210341Z 26007KT 29/08 A301 RMK A01 T02850077  RH  028%=      5-min Rain = 0
KGU1 210342Z 26006KT 28/08 A301 RMK A01 T02840077  RH  028%=      5-min Rain = 0
KGU1 210343Z 25007KT 28/08 A301 RMK A01 T02840076  RH  028%=      5-min Rain = 0
KGU1 210344Z 24009KT 29/08 A301 RMK A01 T02850076  RH  028%=      5-min Rain = 0
KGU1 210345Z 25006KT 29/08 A3011 RMK A01 T02870076  RH  027%=      5-min Rain = 0
KGU1 210346Z 26005KT 29/08 A3011 RMK A01 T02880076  RH  027%=      5-min Rain = 0
KGU1 210347Z 26008KT 29/08 A3011 RMK A01 T02860076  RH  027%=      5-min Rain = 0
KGU1 210348Z 25007KT 29/08 A3011 RMK A01 T02850076  RH  028%=      5-min Rain = 0
KGU1 210349Z 25006KT 29/08 A3011 RMK A01 T02850076  RH  028%=      5-min Rain = 0
KGU1 210350Z 26005KT 29/08 A3011 RMK A01 T02850076  RH  028%=      5-min Rain = 0
KGU1 210351Z 25006KT 28/08 A3011 RMK A01 T02840076  RH  028%=      5-min Rain = 0
KGU1 210352Z 26006KT 28/08 A3011 RMK A01 T02830076  RH  028%=      5-min Rain = 0
KGU1 210353Z 26006KT 28/08 A3011 RMK A01 T02830076  RH  028%=      5-min Rain = 0
KGU1 210354Z 25007KT 28/08 A3011 RMK A01 T02820076  RH  028%=      5-min Rain = 0
KGU1 210355Z 25006KT 28/08 A3011 RMK A01 T02830076  RH  028%=      5-min Rain = 0
KGU1 210356Z 26005KT 28/08 A3011 RMK A01 T02840076  RH  028%=      5-min Rain = 0
KGU1 210357Z 26005KT 28/08 A3011 RMK A01 T02830076  RH  028%=      5-min Rain = 0
KGU1 210358Z 26006KT 28/08 A3011 RMK A01 T02820076  RH  028%=      5-min Rain = 0
KGU1 210359Z 26007KT 28/08 A3011 RMK A01 T02820076  RH  028%=      5-min Rain = 0
KGU1 210400Z 26007KT 28/08 A3011 RMK A01 T02810076  RH  028%=      5-min Rain = 0
KGU1 210401Z 23005KT 28/08 A3011 RMK A01 T02800076  RH  028%=      5-min Rain = 0
KGU1 210402Z 25007KT 28/08 A3011 RMK A01 T02810076  RH  028%=      5-min Rain = 0
KGU1 210403Z 25007KT 28/08 A3011 RMK A01 T02820076  RH  028%=      5-min Rain = 0
KGU1 210404Z 25006KT 28/08 A3011 RMK A01 T02810076  RH  028%=      5-min Rain = 0
KGU1 210405Z 26007KT 28/08 A3011 RMK A01 T02800075  RH  028%=      5-min Rain = 0
KGU1 210406Z 26008KT 28/08 A3011 RMK A01 T02810076  RH  028%=      5-min Rain = 0
KGU1 210407Z 25007KT 28/08 A3011 RMK A01 T02820076  RH  028%=      5-min Rain = 0
KGU1 210408Z 25009KT 28/08 A3011 RMK A01 T02830076  RH  028%=      5-min Rain = 0
KGU1 210409Z 24008KT 28/08 A3011 RMK A01 T02840075  RH  028%=      5-min Rain = 0
KGU1 210410Z 23007KT 29/08 A3011 RMK A01 T02860076  RH  027%=      5-min Rain = 0
KGU1 210411Z 23005KT 29/08 A3011 RMK A01 T02860076  RH  027%=      5-min Rain = 0
KGU1 210412Z 24006KT 29/08 A3011 RMK A01 T02850076  RH  027%=      5-min Rain = 0
KGU1 210413Z 23006KT 29/08 A3011 RMK A01 T02850076  RH  028%=      5-min Rain = 0
KGU1 210414Z 23006KT 28/08 A3011 RMK A01 T02840076  RH  028%=      5-min Rain = 0
KGU1 210415Z 24007KT 28/08 A3011 RMK A01 T02840076  RH  028%=      5-min Rain = 0
KGU1 210416Z 24009KT 28/08 A3011 RMK A01 T02830076  RH  028%=      5-min Rain = 0
KGU1 210417Z 25006KT 28/08 A3011 RMK A01 T02830075  RH  028%=      5-min Rain = 0
KGU1 210418Z 25006KT 28/08 A3011 RMK A01 T02830076  RH  028%=      5-min Rain = 0
KGU1 210419Z 25006KT 28/08 A3011 RMK A01 T02820076  RH  028%=      5-min Rain = 0
KGU1 210420Z 26007KT 28/08 A3011 RMK A01 T02820075  RH  028%=      5-min Rain = 0
KGU1 210421Z 26007KT 28/08 A3011 RMK A01 T02810076  RH  028%=      5-min Rain = 0
KGU1 210422Z 27006KT 28/08 A3011 RMK A01 T02800076  RH  028%=      5-min Rain = 0
KGU1 210423Z 27007KT 28/08 A3011 RMK A01 T02780076  RH  029%=      5-min Rain = 0
KGU1 210424Z 26008KT 28/08 A3011 RMK A01 T02760075  RH  029%=      5-min Rain = 0
KGU1 210425Z 26007KT 28/08 A3011 RMK A01 T02760076  RH  029%=      5-min Rain = 0
KGU1 210426Z 26007KT 28/08 A3011 RMK A01 T02760076  RH  029%=      5-min Rain = 0
KGU1 210427Z 26005KT 28/08 A3011 RMK A01 T02760075  RH  029%=      5-min Rain = 0
KGU1 210428Z 26007KT 28/08 A3011 RMK A01 T02760075  RH  029%=      5-min Rain = 0
KGU1 210429Z 26007KT 28/08 A3011 RMK A01 T02760075  RH  029%=      5-min Rain = 0
KGU1 210430Z 26007KT 28/08 A3011 RMK A01 T02760075  RH  029%=      5-min Rain = 0
KGU1 210431Z 26007KT 28/08 A3011 RMK A01 T02750075  RH  029%=      5-min Rain = 0
KGU1 210432Z 26007KT 28/08 A3011 RMK A01 T02760075  RH  029%=      5-min Rain = 0
KGU1 210433Z 26007KT 28/08 A3011 RMK A01 T02760075  RH  029%=      5-min Rain = 0
KGU1 210434Z 26008KT 28/08 A3011 RMK A01 T02760075  RH  029%=      5-min Rain = 0
KGU1 210435Z 25007KT 28/08 A3011 RMK A01 T02760076  RH  029%=      5-min Rain = 0
KGU1 210436Z 24008KT 28/08 A3011 RMK A01 T02770076  RH  029%=      5-min Rain = 0
KGU1 210437Z 24007KT 28/08 A3011 RMK A01 T02780077  RH  029%=      5-min Rain = 0
KGU1 210438Z 23008KT 28/08 A3011 RMK A01 T02810078  RH  029%=      5-min Rain = 0
KGU1 210439Z 25007KT 28/08 A3011 RMK A01 T02820077  RH  028%=      5-min Rain = 0
KGU1 210440Z 24007KT 28/08 A3011 RMK A01 T02820077  RH  028%=      5-min Rain = 0
KGU1 210441Z 25007KT 28/08 A3011 RMK A01 T02810078  RH  029%=      5-min Rain = 0
KGU1 210442Z 25007KT 28/08 A3011 RMK A01 T02800078  RH  029%=      5-min Rain = 0
KGU1 210443Z 26006KT 28/08 A3011 RMK A01 T02800078  RH  029%=      5-min Rain = 0
KGU1 210444Z 26007KT 28/08 A3011 RMK A01 T02790078  RH  029%=      5-min Rain = 0
KGU1 210445Z 24007KT 28/08 A3011 RMK A01 T02780078  RH  029%=      5-min Rain = 0
KGU1 210446Z 24006KT 28/08 A3011 RMK A01 T02780078  RH  029%=      5-min Rain = 0
KGU1 210447Z 25005KT 28/08 A3011 RMK A01 T02780078  RH  029%=      5-min Rain = 0
KGU1 210448Z 25007KT 28/08 A3011 RMK A01 T02770078  RH  029%=      5-min Rain = 0
KGU1 210449Z 25007KT 28/08 A3011 RMK A01 T02770079  RH  029%=      5-min Rain = 0
KGU1 210450Z 26007KT 28/08 A3011 RMK A01 T02770079  RH  029%=      5-min Rain = 0
KGU1 210451Z 26007KT 28/08 A3011 RMK A01 T02770079  RH  029%=      5-min Rain = 0
KGU1 210452Z 25007KT 28/08 A3011 RMK A01 T02770079  RH  030%=      5-min Rain = 0
KGU1 210453Z 25007KT 28/08 A3011 RMK A01 T02770079  RH  030%=      5-min Rain = 0
KGU1 210454Z 25008KT 28/08 A3011 RMK A01 T02780079  RH  029%=      5-min Rain = 0
KGU1 210455Z 25008KT 28/08 A3011 RMK A01 T02780080  RH  029%=      5-min Rain = 0
KGU1 210456Z 25006KT 28/08 A3011 RMK A01 T02790080  RH  029%=      5-min Rain = 0
KGU1 210457Z 26007KT 28/08 A3011 RMK A01 T02780080  RH  029%=      5-min Rain = 0
KGU1 210458Z 25007KT 28/08 A3011 RMK A01 T02780080  RH  029%=      5-min Rain = 0
KGU1 210459Z 26006KT 28/08 A3011 RMK A01 T02790080  RH  029%=      5-min Rain = 0

Page generated in 0.0718 seconds.